<?xml version='1.0' encoding='UTF-8'?><gpx version="1.1" creator="JPX - https://github.com/jenetics/jpx" xmlns="http://www.topografix.com/GPX/1/1"><trk><trkseg><trkpt lat="44.4543282" lon="11.424166"><ele>75.0</ele><time>2026-04-11T07:52:28.245Z</time></trkpt><trkpt lat="44.4542527" lon="11.4241557"><ele>75.0</ele><time>2026-04-11T07:52:31.246Z</time></trkpt><trkpt lat="44.4541938" lon="11.4241072"><ele>75.0</ele><time>2026-04-11T07:53:28.245Z</time></trkpt><trkpt lat="44.4541463" lon="11.4240455"><ele>75.0</ele><time>2026-04-11T07:54:33.243Z</time></trkpt><trkpt lat="44.4540512" lon="11.4241055"><ele>75.0</ele><time>2026-04-11T07:54:35.249Z</time></trkpt><trkpt lat="44.4539697" lon="11.4241687"><ele>75.0</ele><time>2026-04-11T07:54:36.247Z</time></trkpt><trkpt lat="44.4538807" lon="11.4242457"><ele>74.75</ele><time>2026-04-11T07:54:37.248Z</time></trkpt><trkpt lat="44.4537837" lon="11.4243413"><ele>74.5</ele><time>2026-04-11T07:54:38.247Z</time></trkpt><trkpt lat="44.453667" lon="11.424458"><ele>74.25</ele><time>2026-04-11T07:54:39.247Z</time></trkpt><trkpt lat="44.4535478" lon="11.424566"><ele>74.0</ele><time>2026-04-11T07:54:40.245Z</time></trkpt><trkpt lat="44.4534332" lon="11.4246625"><ele>74.0</ele><time>2026-04-11T07:54:41.248Z</time></trkpt><trkpt lat="44.453323" lon="11.4247522"><ele>74.0</ele><time>2026-04-11T07:54:42.248Z</time></trkpt><trkpt lat="44.4532295" lon="11.4248252"><ele>74.0</ele><time>2026-04-11T07:54:43.248Z</time></trkpt><trkpt lat="44.4531547" lon="11.424879"><ele>74.0</ele><time>2026-04-11T07:54:44.25Z</time></trkpt><trkpt lat="44.4530967" lon="11.424919"><ele>74.0</ele><time>2026-04-11T07:54:45.247Z</time></trkpt><trkpt lat="44.4530083" lon="11.424985"><ele>74.5</ele><time>2026-04-11T07:54:47.247Z</time></trkpt><trkpt lat="44.4529162" lon="11.4250505"><ele>75.0</ele><time>2026-04-11T07:54:49.244Z</time></trkpt><trkpt lat="44.4527823" lon="11.4251172"><ele>75.5</ele><time>2026-04-11T07:54:51.243Z</time></trkpt><trkpt lat="44.452673" lon="11.4251718"><ele>76.0</ele><time>2026-04-11T07:54:52.244Z</time></trkpt><trkpt lat="44.4525467" lon="11.4252165"><ele>76.0</ele><time>2026-04-11T07:54:53.246Z</time></trkpt><trkpt lat="44.4524147" lon="11.4252598"><ele>76.0</ele><time>2026-04-11T07:54:54.246Z</time></trkpt><trkpt lat="44.4522677" lon="11.4253177"><ele>76.0</ele><time>2026-04-11T07:54:55.246Z</time></trkpt><trkpt lat="44.4521095" lon="11.4253863"><ele>76.66666666666666</ele><time>2026-04-11T07:54:56.249Z</time></trkpt><trkpt lat="44.451947" lon="11.4254662"><ele>77.33333333333333</ele><time>2026-04-11T07:54:57.245Z</time></trkpt><trkpt lat="44.4517847" lon="11.4255573"><ele>78.0</ele><time>2026-04-11T07:54:58.245Z</time></trkpt><trkpt lat="44.4516228" lon="11.4256642"><ele>78.0</ele><time>2026-04-11T07:54:59.245Z</time></trkpt><trkpt lat="44.4514578" lon="11.4257877"><ele>78.0</ele><time>2026-04-11T07:55:00.244Z</time></trkpt><trkpt lat="44.4512828" lon="11.4259308"><ele>78.0</ele><time>2026-04-11T07:55:01.245Z</time></trkpt><trkpt lat="44.451111" lon="11.4260873"><ele>78.33333333333333</ele><time>2026-04-11T07:55:02.245Z</time></trkpt><trkpt lat="44.4509412" lon="11.4262602"><ele>78.66666666666666</ele><time>2026-04-11T07:55:03.247Z</time></trkpt><trkpt lat="44.4507732" lon="11.4264408"><ele>79.0</ele><time>2026-04-11T07:55:04.252Z</time></trkpt><trkpt lat="44.450605" lon="11.4266243"><ele>78.66666666666666</ele><time>2026-04-11T07:55:05.246Z</time></trkpt><trkpt lat="44.4504342" lon="11.426811"><ele>78.33333333333333</ele><time>2026-04-11T07:55:06.246Z</time></trkpt><trkpt lat="44.4502628" lon="11.4269982"><ele>78.0</ele><time>2026-04-11T07:55:07.247Z</time></trkpt><trkpt lat="44.4500928" lon="11.4271818"><ele>77.0</ele><time>2026-04-11T07:55:08.246Z</time></trkpt><trkpt lat="44.4499248" lon="11.4273597"><ele>76.0</ele><time>2026-04-11T07:55:09.246Z</time></trkpt><trkpt lat="44.4497658" lon="11.427528"><ele>75.0</ele><time>2026-04-11T07:55:10.246Z</time></trkpt><trkpt lat="44.449619" lon="11.4276928"><ele>74.33333333333333</ele><time>2026-04-11T07:55:11.246Z</time></trkpt><trkpt lat="44.4494915" lon="11.4278662"><ele>73.66666666666666</ele><time>2026-04-11T07:55:12.246Z</time></trkpt><trkpt lat="44.4493927" lon="11.428065"><ele>73.0</ele><time>2026-04-11T07:55:13.246Z</time></trkpt><trkpt lat="44.4493167" lon="11.428301"><ele>73.0</ele><time>2026-04-11T07:55:14.248Z</time></trkpt><trkpt lat="44.4492468" lon="11.428567"><ele>73.0</ele><time>2026-04-11T07:55:15.245Z</time></trkpt><trkpt lat="44.4491735" lon="11.4288487"><ele>73.0</ele><time>2026-04-11T07:55:16.246Z</time></trkpt><trkpt lat="44.4490975" lon="11.4291327"><ele>72.66666666666666</ele><time>2026-04-11T07:55:17.246Z</time></trkpt><trkpt lat="44.4490248" lon="11.4294052"><ele>72.33333333333333</ele><time>2026-04-11T07:55:18.247Z</time></trkpt><trkpt lat="44.4489552" lon="11.4296627"><ele>72.0</ele><time>2026-04-11T07:55:19.247Z</time></trkpt><trkpt lat="44.4488893" lon="11.4299055"><ele>71.0</ele><time>2026-04-11T07:55:20.247Z</time></trkpt><trkpt lat="44.4488283" lon="11.430136"><ele>70.0</ele><time>2026-04-11T07:55:21.247Z</time></trkpt><trkpt lat="44.4487718" lon="11.4303542"><ele>69.0</ele><time>2026-04-11T07:55:22.246Z</time></trkpt><trkpt lat="44.4487188" lon="11.4305617"><ele>68.75</ele><time>2026-04-11T07:55:23.248Z</time></trkpt><trkpt lat="44.44867" lon="11.430752"><ele>68.5</ele><time>2026-04-11T07:55:24.248Z</time></trkpt><trkpt lat="44.4486243" lon="11.4309258"><ele>68.25</ele><time>2026-04-11T07:55:25.247Z</time></trkpt><trkpt lat="44.4485812" lon="11.4310913"><ele>68.0</ele><time>2026-04-11T07:55:26.247Z</time></trkpt><trkpt lat="44.448542" lon="11.4312432"><ele>68.16666666666667</ele><time>2026-04-11T07:55:27.247Z</time></trkpt><trkpt lat="44.4485065" lon="11.4313785"><ele>68.33333333333334</ele><time>2026-04-11T07:55:28.246Z</time></trkpt><trkpt lat="44.4484733" lon="11.4315022"><ele>68.5</ele><time>2026-04-11T07:55:29.247Z</time></trkpt><trkpt lat="44.4484423" lon="11.4316133"><ele>68.66666666666667</ele><time>2026-04-11T07:55:30.246Z</time></trkpt><trkpt lat="44.4484135" lon="11.4317193"><ele>68.83333333333333</ele><time>2026-04-11T07:55:31.246Z</time></trkpt><trkpt lat="44.4483857" lon="11.4318188"><ele>69.0</ele><time>2026-04-11T07:55:32.249Z</time></trkpt><trkpt lat="44.4483602" lon="11.4319083"><ele>69.0</ele><time>2026-04-11T07:55:33.247Z</time></trkpt><trkpt lat="44.44832" lon="11.4320608"><ele>69.0</ele><time>2026-04-11T07:55:35.248Z</time></trkpt><trkpt lat="44.4482873" lon="11.4321923"><ele>69.0</ele><time>2026-04-11T07:55:37.248Z</time></trkpt><trkpt lat="44.4482333" lon="11.4323262"><ele>69.0</ele><time>2026-04-11T07:55:39.252Z</time></trkpt><trkpt lat="44.4481608" lon="11.4323873"><ele>69.0</ele><time>2026-04-11T07:55:41.251Z</time></trkpt><trkpt lat="44.4480892" lon="11.4323978"><ele>69.0</ele><time>2026-04-11T07:55:43.248Z</time></trkpt><trkpt lat="44.4479695" lon="11.4323918"><ele>69.0</ele><time>2026-04-11T07:55:45.246Z</time></trkpt><trkpt lat="44.4479" lon="11.4323908"><ele>69.0</ele><time>2026-04-11T07:55:46.246Z</time></trkpt><trkpt lat="44.4478218" lon="11.432389"><ele>69.0</ele><time>2026-04-11T07:55:47.246Z</time></trkpt><trkpt lat="44.4477413" lon="11.4323858"><ele>69.0</ele><time>2026-04-11T07:55:48.246Z</time></trkpt><trkpt lat="44.447673" lon="11.4323835"><ele>69.0</ele><time>2026-04-11T07:55:49.249Z</time></trkpt><trkpt lat="44.447589" lon="11.4323867"><ele>69.0</ele><time>2026-04-11T07:55:51.247Z</time></trkpt><trkpt lat="44.4475188" lon="11.4324092"><ele>69.0</ele><time>2026-04-11T07:55:53.247Z</time></trkpt><trkpt lat="44.4474598" lon="11.4324422"><ele>69.0</ele><time>2026-04-11T07:55:54.247Z</time></trkpt><trkpt lat="44.4474055" lon="11.4325003"><ele>69.0</ele><time>2026-04-11T07:55:55.247Z</time></trkpt><trkpt lat="44.4473377" lon="11.4326403"><ele>69.0</ele><time>2026-04-11T07:55:57.248Z</time></trkpt><trkpt lat="44.4473028" lon="11.4327577"><ele>69.0</ele><time>2026-04-11T07:55:58.248Z</time></trkpt><trkpt lat="44.447263" lon="11.4329032"><ele>69.25</ele><time>2026-04-11T07:55:59.248Z</time></trkpt><trkpt lat="44.4472167" lon="11.4330937"><ele>69.5</ele><time>2026-04-11T07:56:00.245Z</time></trkpt><trkpt lat="44.4471668" lon="11.4333048"><ele>69.75</ele><time>2026-04-11T07:56:01.246Z</time></trkpt><trkpt lat="44.4471195" lon="11.4334988"><ele>70.0</ele><time>2026-04-11T07:56:02.246Z</time></trkpt><trkpt lat="44.4470723" lon="11.4336763"><ele>69.5</ele><time>2026-04-11T07:56:03.244Z</time></trkpt><trkpt lat="44.4470245" lon="11.4338423"><ele>69.0</ele><time>2026-04-11T07:56:04.243Z</time></trkpt><trkpt lat="44.4469795" lon="11.4339972"><ele>68.5</ele><time>2026-04-11T07:56:05.244Z</time></trkpt><trkpt lat="44.4469358" lon="11.4341552"><ele>68.0</ele><time>2026-04-11T07:56:06.243Z</time></trkpt><trkpt lat="44.4468885" lon="11.4343182"><ele>68.0</ele><time>2026-04-11T07:56:07.246Z</time></trkpt><trkpt lat="44.4468407" lon="11.4344725"><ele>68.0</ele><time>2026-04-11T07:56:08.245Z</time></trkpt><trkpt lat="44.4467972" lon="11.4346143"><ele>68.0</ele><time>2026-04-11T07:56:09.246Z</time></trkpt><trkpt lat="44.4467492" lon="11.4347567"><ele>68.0</ele><time>2026-04-11T07:56:10.244Z</time></trkpt><trkpt lat="44.4466995" lon="11.4348838"><ele>68.0</ele><time>2026-04-11T07:56:11.245Z</time></trkpt><trkpt lat="44.446647" lon="11.4350018"><ele>68.0</ele><time>2026-04-11T07:56:12.245Z</time></trkpt><trkpt lat="44.4465883" lon="11.4351052"><ele>68.0</ele><time>2026-04-11T07:56:13.245Z</time></trkpt><trkpt lat="44.4465282" lon="11.4351793"><ele>68.0</ele><time>2026-04-11T07:56:14.247Z</time></trkpt><trkpt lat="44.4464622" lon="11.4352167"><ele>68.0</ele><time>2026-04-11T07:56:15.245Z</time></trkpt><trkpt lat="44.4463813" lon="11.4352098"><ele>68.0</ele><time>2026-04-11T07:56:16.246Z</time></trkpt><trkpt lat="44.4462923" lon="11.4351595"><ele>68.0</ele><time>2026-04-11T07:56:17.245Z</time></trkpt><trkpt lat="44.4461962" lon="11.4350908"><ele>68.0</ele><time>2026-04-11T07:56:18.248Z</time></trkpt><trkpt lat="44.4461017" lon="11.435022"><ele>68.0</ele><time>2026-04-11T07:56:19.245Z</time></trkpt><trkpt lat="44.4460202" lon="11.4349723"><ele>68.0</ele><time>2026-04-11T07:56:20.246Z</time></trkpt><trkpt lat="44.4459133" lon="11.4349428"><ele>68.0</ele><time>2026-04-11T07:56:22.246Z</time></trkpt><trkpt lat="44.4458072" lon="11.4349615"><ele>68.0</ele><time>2026-04-11T07:56:24.246Z</time></trkpt><trkpt lat="44.4457245" lon="11.4349827"><ele>68.0</ele><time>2026-04-11T07:56:25.245Z</time></trkpt><trkpt lat="44.445646" lon="11.4349993"><ele>68.0</ele><time>2026-04-11T07:56:26.246Z</time></trkpt><trkpt lat="44.445581" lon="11.4349855"><ele>68.0</ele><time>2026-04-11T07:56:27.243Z</time></trkpt><trkpt lat="44.4455298" lon="11.434934"><ele>68.0</ele><time>2026-04-11T07:56:28.242Z</time></trkpt><trkpt lat="44.4454887" lon="11.4348307"><ele>68.0</ele><time>2026-04-11T07:56:29.243Z</time></trkpt><trkpt lat="44.44546" lon="11.4346855"><ele>68.0</ele><time>2026-04-11T07:56:30.243Z</time></trkpt><trkpt lat="44.4454327" lon="11.4345333"><ele>67.6</ele><time>2026-04-11T07:56:31.243Z</time></trkpt><trkpt lat="44.4454063" lon="11.4343897"><ele>67.19999999999999</ele><time>2026-04-11T07:56:32.245Z</time></trkpt><trkpt lat="44.4453827" lon="11.4342493"><ele>66.8</ele><time>2026-04-11T07:56:33.244Z</time></trkpt><trkpt lat="44.4453583" lon="11.4341147"><ele>66.39999999999999</ele><time>2026-04-11T07:56:34.244Z</time></trkpt><trkpt lat="44.4453298" lon="11.433988"><ele>66.0</ele><time>2026-04-11T07:56:35.243Z</time></trkpt><trkpt lat="44.4452883" lon="11.4338792"><ele>66.6</ele><time>2026-04-11T07:56:36.243Z</time></trkpt><trkpt lat="44.4452192" lon="11.433795"><ele>67.19999999999999</ele><time>2026-04-11T07:56:37.244Z</time></trkpt><trkpt lat="44.4451317" lon="11.4337385"><ele>67.80000000000001</ele><time>2026-04-11T07:56:38.243Z</time></trkpt><trkpt lat="44.445035" lon="11.4336907"><ele>68.4</ele><time>2026-04-11T07:56:39.244Z</time></trkpt><trkpt lat="44.4449372" lon="11.4336412"><ele>69.0</ele><time>2026-04-11T07:56:40.245Z</time></trkpt><trkpt lat="44.4448327" lon="11.4335852"><ele>69.0</ele><time>2026-04-11T07:56:41.245Z</time></trkpt><trkpt lat="44.4447295" lon="11.433528"><ele>69.0</ele><time>2026-04-11T07:56:42.246Z</time></trkpt><trkpt lat="44.4446255" lon="11.433466"><ele>69.0</ele><time>2026-04-11T07:56:43.247Z</time></trkpt><trkpt lat="44.4445233" lon="11.4334067"><ele>69.0</ele><time>2026-04-11T07:56:44.249Z</time></trkpt><trkpt lat="44.4444225" lon="11.4333563"><ele>69.0</ele><time>2026-04-11T07:56:45.246Z</time></trkpt><trkpt lat="44.4443247" lon="11.4333292"><ele>70.4</ele><time>2026-04-11T07:56:46.246Z</time></trkpt><trkpt lat="44.444229" lon="11.4333408"><ele>71.80000000000001</ele><time>2026-04-11T07:56:47.248Z</time></trkpt><trkpt lat="44.4441353" lon="11.4333885"><ele>73.19999999999999</ele><time>2026-04-11T07:56:48.246Z</time></trkpt><trkpt lat="44.4440492" lon="11.4334635"><ele>74.6</ele><time>2026-04-11T07:56:49.246Z</time></trkpt><trkpt lat="44.4439675" lon="11.4335498"><ele>76.0</ele><time>2026-04-11T07:56:50.244Z</time></trkpt><trkpt lat="44.4438867" lon="11.433641"><ele>76.0</ele><time>2026-04-11T07:56:51.243Z</time></trkpt><trkpt lat="44.4437988" lon="11.4337273"><ele>76.0</ele><time>2026-04-11T07:56:52.241Z</time></trkpt><trkpt lat="44.443703" lon="11.4338003"><ele>76.0</ele><time>2026-04-11T07:56:53.24Z</time></trkpt><trkpt lat="44.4436043" lon="11.4338637"><ele>76.0</ele><time>2026-04-11T07:56:54.24Z</time></trkpt><trkpt lat="44.4435058" lon="11.4339122"><ele>76.0</ele><time>2026-04-11T07:56:55.238Z</time></trkpt><trkpt lat="44.4434145" lon="11.433964"><ele>76.8</ele><time>2026-04-11T07:56:56.24Z</time></trkpt><trkpt lat="44.4433295" lon="11.434031"><ele>77.6</ele><time>2026-04-11T07:56:57.241Z</time></trkpt><trkpt lat="44.4432537" lon="11.4341255"><ele>78.4</ele><time>2026-04-11T07:56:58.24Z</time></trkpt><trkpt lat="44.4431957" lon="11.4342415"><ele>79.2</ele><time>2026-04-11T07:56:59.24Z</time></trkpt><trkpt lat="44.4431455" lon="11.4343692"><ele>80.0</ele><time>2026-04-11T07:57:00.239Z</time></trkpt><trkpt lat="44.443107" lon="11.4344867"><ele>80.0</ele><time>2026-04-11T07:57:01.24Z</time></trkpt><trkpt lat="44.4430788" lon="11.434578"><ele>80.0</ele><time>2026-04-11T07:57:02.243Z</time></trkpt><trkpt lat="44.442996" lon="11.4347043"><ele>80.0</ele><time>2026-04-11T07:57:04.243Z</time></trkpt><trkpt lat="44.4429277" lon="11.4347217"><ele>80.0</ele><time>2026-04-11T07:57:05.244Z</time></trkpt><trkpt lat="44.442847" lon="11.434703"><ele>80.0</ele><time>2026-04-11T07:57:06.242Z</time></trkpt><trkpt lat="44.4427692" lon="11.4346625"><ele>80.0</ele><time>2026-04-11T07:57:07.246Z</time></trkpt><trkpt lat="44.4426932" lon="11.4346192"><ele>80.8</ele><time>2026-04-11T07:57:08.244Z</time></trkpt><trkpt lat="44.4426155" lon="11.4345753"><ele>81.6</ele><time>2026-04-11T07:57:09.243Z</time></trkpt><trkpt lat="44.4425285" lon="11.4345288"><ele>82.4</ele><time>2026-04-11T07:57:10.242Z</time></trkpt><trkpt lat="44.442427" lon="11.4344697"><ele>83.2</ele><time>2026-04-11T07:57:11.244Z</time></trkpt><trkpt lat="44.4423108" lon="11.4344087"><ele>84.0</ele><time>2026-04-11T07:57:12.244Z</time></trkpt><trkpt lat="44.442182" lon="11.4343578"><ele>85.5</ele><time>2026-04-11T07:57:13.242Z</time></trkpt><trkpt lat="44.442043" lon="11.4343195"><ele>87.0</ele><time>2026-04-11T07:57:14.243Z</time></trkpt><trkpt lat="44.4419193" lon="11.4342892"><ele>88.5</ele><time>2026-04-11T07:57:15.242Z</time></trkpt><trkpt lat="44.4418028" lon="11.434262"><ele>90.0</ele><time>2026-04-11T07:57:16.24Z</time></trkpt><trkpt lat="44.4416762" lon="11.4342228"><ele>90.0</ele><time>2026-04-11T07:57:17.243Z</time></trkpt><trkpt lat="44.4415568" lon="11.4341705"><ele>90.0</ele><time>2026-04-11T07:57:18.24Z</time></trkpt><trkpt lat="44.4414508" lon="11.4340955"><ele>90.0</ele><time>2026-04-11T07:57:19.24Z</time></trkpt><trkpt lat="44.4413397" lon="11.4339978"><ele>90.0</ele><time>2026-04-11T07:57:20.241Z</time></trkpt><trkpt lat="44.441231" lon="11.4339037"><ele>91.25</ele><time>2026-04-11T07:57:21.242Z</time></trkpt><trkpt lat="44.4411202" lon="11.4338023"><ele>92.5</ele><time>2026-04-11T07:57:22.24Z</time></trkpt><trkpt lat="44.4410108" lon="11.4336987"><ele>93.75</ele><time>2026-04-11T07:57:23.242Z</time></trkpt><trkpt lat="44.4408915" lon="11.4336073"><ele>95.0</ele><time>2026-04-11T07:57:24.242Z</time></trkpt><trkpt lat="44.4407792" lon="11.4335222"><ele>95.0</ele><time>2026-04-11T07:57:25.242Z</time></trkpt><trkpt lat="44.4406628" lon="11.4334377"><ele>95.0</ele><time>2026-04-11T07:57:26.242Z</time></trkpt><trkpt lat="44.440542" lon="11.4333568"><ele>95.0</ele><time>2026-04-11T07:57:27.242Z</time></trkpt><trkpt lat="44.4404242" lon="11.4332735"><ele>95.0</ele><time>2026-04-11T07:57:28.255Z</time></trkpt><trkpt lat="44.4403063" lon="11.4331835"><ele>95.25</ele><time>2026-04-11T07:57:29.243Z</time></trkpt><trkpt lat="44.4401907" lon="11.4330767"><ele>95.5</ele><time>2026-04-11T07:57:30.242Z</time></trkpt><trkpt lat="44.4400747" lon="11.4329628"><ele>95.75</ele><time>2026-04-11T07:57:31.244Z</time></trkpt><trkpt lat="44.4399592" lon="11.4328502"><ele>96.0</ele><time>2026-04-11T07:57:32.242Z</time></trkpt><trkpt lat="44.4398463" lon="11.432743"><ele>96.0</ele><time>2026-04-11T07:57:33.243Z</time></trkpt><trkpt lat="44.4397193" lon="11.4326357"><ele>96.0</ele><time>2026-04-11T07:57:34.242Z</time></trkpt><trkpt lat="44.4395838" lon="11.4325407"><ele>96.0</ele><time>2026-04-11T07:57:35.244Z</time></trkpt><trkpt lat="44.4394425" lon="11.4324572"><ele>95.5</ele><time>2026-04-11T07:57:36.243Z</time></trkpt><trkpt lat="44.4393078" lon="11.4323865"><ele>95.0</ele><time>2026-04-11T07:57:37.242Z</time></trkpt><trkpt lat="44.4391733" lon="11.4323147"><ele>94.5</ele><time>2026-04-11T07:57:38.243Z</time></trkpt><trkpt lat="44.4390478" lon="11.4322408"><ele>94.0</ele><time>2026-04-11T07:57:39.243Z</time></trkpt><trkpt lat="44.438932" lon="11.4321588"><ele>95.5</ele><time>2026-04-11T07:57:40.243Z</time></trkpt><trkpt lat="44.4388305" lon="11.4320685"><ele>97.0</ele><time>2026-04-11T07:57:41.24Z</time></trkpt><trkpt lat="44.4387403" lon="11.43197"><ele>98.5</ele><time>2026-04-11T07:57:42.241Z</time></trkpt><trkpt lat="44.4386588" lon="11.4318788"><ele>100.0</ele><time>2026-04-11T07:57:43.24Z</time></trkpt><trkpt lat="44.4385582" lon="11.4318082"><ele>100.0</ele><time>2026-04-11T07:57:44.245Z</time></trkpt><trkpt lat="44.4384413" lon="11.431767"><ele>100.0</ele><time>2026-04-11T07:57:45.243Z</time></trkpt><trkpt lat="44.4383152" lon="11.4317492"><ele>100.0</ele><time>2026-04-11T07:57:46.244Z</time></trkpt><trkpt lat="44.4381888" lon="11.4317323"><ele>100.0</ele><time>2026-04-11T07:57:47.243Z</time></trkpt><trkpt lat="44.4380617" lon="11.4317163"><ele>99.0</ele><time>2026-04-11T07:57:48.243Z</time></trkpt><trkpt lat="44.4379193" lon="11.4316918"><ele>98.0</ele><time>2026-04-11T07:57:49.243Z</time></trkpt><trkpt lat="44.4377848" lon="11.4316687"><ele>97.0</ele><time>2026-04-11T07:57:50.244Z</time></trkpt><trkpt lat="44.4376528" lon="11.4316427"><ele>96.0</ele><time>2026-04-11T07:57:51.244Z</time></trkpt><trkpt lat="44.4375257" lon="11.4316178"><ele>96.0</ele><time>2026-04-11T07:57:52.244Z</time></trkpt><trkpt lat="44.4374042" lon="11.4315947"><ele>96.0</ele><time>2026-04-11T07:57:53.245Z</time></trkpt><trkpt lat="44.4372933" lon="11.4315747"><ele>96.0</ele><time>2026-04-11T07:57:54.243Z</time></trkpt><trkpt lat="44.437192" lon="11.4315558"><ele>96.0</ele><time>2026-04-11T07:57:55.242Z</time></trkpt><trkpt lat="44.4370958" lon="11.4315383"><ele>96.0</ele><time>2026-04-11T07:57:56.243Z</time></trkpt><trkpt lat="44.4370152" lon="11.4315243"><ele>95.66666666666667</ele><time>2026-04-11T07:57:57.244Z</time></trkpt><trkpt lat="44.4369417" lon="11.4315113"><ele>95.33333333333333</ele><time>2026-04-11T07:57:58.244Z</time></trkpt><trkpt lat="44.436869" lon="11.4315038"><ele>95.0</ele><time>2026-04-11T07:57:59.243Z</time></trkpt><trkpt lat="44.4367962" lon="11.4315015"><ele>94.66666666666666</ele><time>2026-04-11T07:58:00.245Z</time></trkpt><trkpt lat="44.4367132" lon="11.4314958"><ele>94.33333333333333</ele><time>2026-04-11T07:58:01.243Z</time></trkpt><trkpt lat="44.4366055" lon="11.4314798"><ele>94.0</ele><time>2026-04-11T07:58:02.243Z</time></trkpt><trkpt lat="44.4364823" lon="11.4314685"><ele>94.0</ele><time>2026-04-11T07:58:03.245Z</time></trkpt><trkpt lat="44.4363487" lon="11.4314672"><ele>94.0</ele><time>2026-04-11T07:58:04.245Z</time></trkpt><trkpt lat="44.4362138" lon="11.4314753"><ele>94.0</ele><time>2026-04-11T07:58:05.242Z</time></trkpt><trkpt lat="44.4360888" lon="11.4314805"><ele>94.0</ele><time>2026-04-11T07:58:06.239Z</time></trkpt><trkpt lat="44.4359582" lon="11.4314838"><ele>93.0</ele><time>2026-04-11T07:58:07.241Z</time></trkpt><trkpt lat="44.4358258" lon="11.4314873"><ele>92.0</ele><time>2026-04-11T07:58:08.242Z</time></trkpt><trkpt lat="44.4356942" lon="11.4314912"><ele>91.0</ele><time>2026-04-11T07:58:09.241Z</time></trkpt><trkpt lat="44.4355695" lon="11.4314962"><ele>90.0</ele><time>2026-04-11T07:58:10.243Z</time></trkpt><trkpt lat="44.4354528" lon="11.4315063"><ele>89.0</ele><time>2026-04-11T07:58:11.244Z</time></trkpt><trkpt lat="44.4353298" lon="11.4315253"><ele>88.0</ele><time>2026-04-11T07:58:12.243Z</time></trkpt><trkpt lat="44.435206" lon="11.431558"><ele>87.0</ele><time>2026-04-11T07:58:13.243Z</time></trkpt><trkpt lat="44.4350797" lon="11.4315932"><ele>86.0</ele><time>2026-04-11T07:58:14.244Z</time></trkpt><trkpt lat="44.4349548" lon="11.4316285"><ele>86.0</ele><time>2026-04-11T07:58:15.243Z</time></trkpt><trkpt lat="44.4348313" lon="11.4316602"><ele>86.0</ele><time>2026-04-11T07:58:16.245Z</time></trkpt><trkpt lat="44.434702" lon="11.4316883"><ele>86.0</ele><time>2026-04-11T07:58:17.245Z</time></trkpt><trkpt lat="44.4345685" lon="11.4317178"><ele>86.0</ele><time>2026-04-11T07:58:18.245Z</time></trkpt><trkpt lat="44.4344318" lon="11.4317507"><ele>84.5</ele><time>2026-04-11T07:58:19.244Z</time></trkpt><trkpt lat="44.4342915" lon="11.4317863"><ele>83.0</ele><time>2026-04-11T07:58:20.243Z</time></trkpt><trkpt lat="44.4341507" lon="11.43183"><ele>81.5</ele><time>2026-04-11T07:58:21.243Z</time></trkpt><trkpt lat="44.4340117" lon="11.4318793"><ele>80.0</ele><time>2026-04-11T07:58:22.243Z</time></trkpt><trkpt lat="44.4338758" lon="11.4319403"><ele>79.0</ele><time>2026-04-11T07:58:23.247Z</time></trkpt><trkpt lat="44.4337493" lon="11.4320232"><ele>78.0</ele><time>2026-04-11T07:58:24.244Z</time></trkpt><trkpt lat="44.4336352" lon="11.4321148"><ele>77.0</ele><time>2026-04-11T07:58:25.243Z</time></trkpt><trkpt lat="44.4335267" lon="11.4322092"><ele>76.0</ele><time>2026-04-11T07:58:26.244Z</time></trkpt><trkpt lat="44.4334195" lon="11.432305"><ele>76.0</ele><time>2026-04-11T07:58:27.244Z</time></trkpt><trkpt lat="44.433319" lon="11.4323943"><ele>76.0</ele><time>2026-04-11T07:58:28.244Z</time></trkpt><trkpt lat="44.4332237" lon="11.4324707"><ele>76.0</ele><time>2026-04-11T07:58:29.243Z</time></trkpt><trkpt lat="44.4331352" lon="11.4325252"><ele>76.0</ele><time>2026-04-11T07:58:30.245Z</time></trkpt><trkpt lat="44.433043" lon="11.4325523"><ele>76.0</ele><time>2026-04-11T07:58:31.246Z</time></trkpt><trkpt lat="44.4329402" lon="11.4325505"><ele>76.0</ele><time>2026-04-11T07:58:32.243Z</time></trkpt><trkpt lat="44.4328322" lon="11.4325157"><ele>76.0</ele><time>2026-04-11T07:58:33.241Z</time></trkpt><trkpt lat="44.4327117" lon="11.4324538"><ele>76.0</ele><time>2026-04-11T07:58:34.244Z</time></trkpt><trkpt lat="44.4325768" lon="11.4323753"><ele>76.0</ele><time>2026-04-11T07:58:35.245Z</time></trkpt><trkpt lat="44.4324457" lon="11.4322952"><ele>76.0</ele><time>2026-04-11T07:58:36.245Z</time></trkpt><trkpt lat="44.4323108" lon="11.432216"><ele>76.0</ele><time>2026-04-11T07:58:37.244Z</time></trkpt><trkpt lat="44.4321768" lon="11.4321377"><ele>76.0</ele><time>2026-04-11T07:58:38.245Z</time></trkpt><trkpt lat="44.432042" lon="11.4320597"><ele>76.0</ele><time>2026-04-11T07:58:39.245Z</time></trkpt><trkpt lat="44.4319058" lon="11.4319817"><ele>76.75</ele><time>2026-04-11T07:58:40.245Z</time></trkpt><trkpt lat="44.4317697" lon="11.431905"><ele>77.5</ele><time>2026-04-11T07:58:41.244Z</time></trkpt><trkpt lat="44.4316322" lon="11.4318285"><ele>78.25</ele><time>2026-04-11T07:58:42.245Z</time></trkpt><trkpt lat="44.4314952" lon="11.4317563"><ele>79.0</ele><time>2026-04-11T07:58:43.244Z</time></trkpt><trkpt lat="44.4313578" lon="11.4316855"><ele>78.75</ele><time>2026-04-11T07:58:44.245Z</time></trkpt><trkpt lat="44.4312248" lon="11.4316148"><ele>78.5</ele><time>2026-04-11T07:58:45.243Z</time></trkpt><trkpt lat="44.4311" lon="11.4315435"><ele>78.25</ele><time>2026-04-11T07:58:46.243Z</time></trkpt><trkpt lat="44.4309707" lon="11.4314673"><ele>78.0</ele><time>2026-04-11T07:58:47.245Z</time></trkpt><trkpt lat="44.4308355" lon="11.4313838"><ele>78.0</ele><time>2026-04-11T07:58:48.244Z</time></trkpt><trkpt lat="44.4306912" lon="11.4312945"><ele>78.0</ele><time>2026-04-11T07:58:49.245Z</time></trkpt><trkpt lat="44.4305455" lon="11.4312138"><ele>78.0</ele><time>2026-04-11T07:58:50.244Z</time></trkpt><trkpt lat="44.4303987" lon="11.4311433"><ele>78.0</ele><time>2026-04-11T07:58:51.244Z</time></trkpt><trkpt lat="44.430264" lon="11.4310738"><ele>78.0</ele><time>2026-04-11T07:58:52.243Z</time></trkpt><trkpt lat="44.4301368" lon="11.4310098"><ele>78.0</ele><time>2026-04-11T07:58:53.243Z</time></trkpt><trkpt lat="44.4300227" lon="11.4309408"><ele>78.0</ele><time>2026-04-11T07:58:54.243Z</time></trkpt><trkpt lat="44.4299153" lon="11.4308528"><ele>78.0</ele><time>2026-04-11T07:58:55.241Z</time></trkpt><trkpt lat="44.4298092" lon="11.4307392"><ele>78.0</ele><time>2026-04-11T07:58:56.244Z</time></trkpt><trkpt lat="44.4297092" lon="11.4306108"><ele>78.0</ele><time>2026-04-11T07:58:57.242Z</time></trkpt><trkpt lat="44.4296168" lon="11.4304702"><ele>78.0</ele><time>2026-04-11T07:58:58.242Z</time></trkpt><trkpt lat="44.4295327" lon="11.4303332"><ele>78.2</ele><time>2026-04-11T07:58:59.243Z</time></trkpt><trkpt lat="44.4294533" lon="11.4302032"><ele>78.4</ele><time>2026-04-11T07:59:00.243Z</time></trkpt><trkpt lat="44.4293827" lon="11.4300842"><ele>78.60000000000001</ele><time>2026-04-11T07:59:01.243Z</time></trkpt><trkpt lat="44.42932" lon="11.4299728"><ele>78.8</ele><time>2026-04-11T07:59:02.244Z</time></trkpt><trkpt lat="44.4292618" lon="11.429867"><ele>79.0</ele><time>2026-04-11T07:59:03.243Z</time></trkpt><trkpt lat="44.4292053" lon="11.42975"><ele>80.6</ele><time>2026-04-11T07:59:04.243Z</time></trkpt><trkpt lat="44.429153" lon="11.4296238"><ele>82.2</ele><time>2026-04-11T07:59:05.244Z</time></trkpt><trkpt lat="44.4290985" lon="11.4294915"><ele>83.8</ele><time>2026-04-11T07:59:06.243Z</time></trkpt><trkpt lat="44.4290383" lon="11.4293607"><ele>85.39999999999999</ele><time>2026-04-11T07:59:07.243Z</time></trkpt><trkpt lat="44.4289673" lon="11.4292248"><ele>87.0</ele><time>2026-04-11T07:59:08.245Z</time></trkpt><trkpt lat="44.4288898" lon="11.4290865"><ele>86.5</ele><time>2026-04-11T07:59:09.244Z</time></trkpt><trkpt lat="44.428806" lon="11.4289435"><ele>86.0</ele><time>2026-04-11T07:59:10.245Z</time></trkpt><trkpt lat="44.4287183" lon="11.428802"><ele>85.5</ele><time>2026-04-11T07:59:11.243Z</time></trkpt><trkpt lat="44.4286253" lon="11.4286613"><ele>85.0</ele><time>2026-04-11T07:59:12.243Z</time></trkpt><trkpt lat="44.428528" lon="11.4285227"><ele>85.0</ele><time>2026-04-11T07:59:13.241Z</time></trkpt><trkpt lat="44.428428" lon="11.4283903"><ele>85.0</ele><time>2026-04-11T07:59:14.243Z</time></trkpt><trkpt lat="44.4283248" lon="11.4282693"><ele>85.0</ele><time>2026-04-11T07:59:15.243Z</time></trkpt><trkpt lat="44.4282198" lon="11.428158"><ele>85.0</ele><time>2026-04-11T07:59:16.242Z</time></trkpt><trkpt lat="44.4281143" lon="11.4280537"><ele>85.75</ele><time>2026-04-11T07:59:17.244Z</time></trkpt><trkpt lat="44.4280162" lon="11.4279553"><ele>86.5</ele><time>2026-04-11T07:59:18.243Z</time></trkpt><trkpt lat="44.4279223" lon="11.4278515"><ele>87.25</ele><time>2026-04-11T07:59:19.24Z</time></trkpt><trkpt lat="44.4278352" lon="11.4277473"><ele>88.0</ele><time>2026-04-11T07:59:20.241Z</time></trkpt><trkpt lat="44.4277458" lon="11.4276565"><ele>88.0</ele><time>2026-04-11T07:59:21.241Z</time></trkpt><trkpt lat="44.4276485" lon="11.4275777"><ele>88.0</ele><time>2026-04-11T07:59:22.241Z</time></trkpt><trkpt lat="44.427545" lon="11.4275082"><ele>88.0</ele><time>2026-04-11T07:59:23.244Z</time></trkpt><trkpt lat="44.4274358" lon="11.4274532"><ele>88.0</ele><time>2026-04-11T07:59:24.242Z</time></trkpt><trkpt lat="44.4273322" lon="11.4274113"><ele>88.0</ele><time>2026-04-11T07:59:25.243Z</time></trkpt><trkpt lat="44.4272397" lon="11.4273683"><ele>88.0</ele><time>2026-04-11T07:59:26.243Z</time></trkpt><trkpt lat="44.4271545" lon="11.4273225"><ele>88.0</ele><time>2026-04-11T07:59:27.244Z</time></trkpt><trkpt lat="44.4270722" lon="11.4272697"><ele>88.0</ele><time>2026-04-11T07:59:28.244Z</time></trkpt><trkpt lat="44.426987" lon="11.4272168"><ele>88.0</ele><time>2026-04-11T07:59:29.244Z</time></trkpt><trkpt lat="44.4268983" lon="11.4271658"><ele>89.0</ele><time>2026-04-11T07:59:30.242Z</time></trkpt><trkpt lat="44.4268118" lon="11.4271162"><ele>90.0</ele><time>2026-04-11T07:59:31.245Z</time></trkpt><trkpt lat="44.426724" lon="11.4270647"><ele>91.0</ele><time>2026-04-11T07:59:32.244Z</time></trkpt><trkpt lat="44.4266378" lon="11.4270097"><ele>92.0</ele><time>2026-04-11T07:59:33.242Z</time></trkpt><trkpt lat="44.4265452" lon="11.4269533"><ele>93.0</ele><time>2026-04-11T07:59:34.243Z</time></trkpt><trkpt lat="44.4264475" lon="11.4268997"><ele>93.0</ele><time>2026-04-11T07:59:35.244Z</time></trkpt><trkpt lat="44.426353" lon="11.4268452"><ele>93.0</ele><time>2026-04-11T07:59:36.243Z</time></trkpt><trkpt lat="44.4262565" lon="11.4267915"><ele>93.0</ele><time>2026-04-11T07:59:37.244Z</time></trkpt><trkpt lat="44.4261597" lon="11.426735"><ele>93.0</ele><time>2026-04-11T07:59:38.244Z</time></trkpt><trkpt lat="44.4260662" lon="11.4266752"><ele>93.0</ele><time>2026-04-11T07:59:39.244Z</time></trkpt><trkpt lat="44.4259727" lon="11.4266193"><ele>91.0</ele><time>2026-04-11T07:59:40.244Z</time></trkpt><trkpt lat="44.4258803" lon="11.4265668"><ele>89.0</ele><time>2026-04-11T07:59:41.244Z</time></trkpt><trkpt lat="44.4257857" lon="11.4265148"><ele>87.0</ele><time>2026-04-11T07:59:42.243Z</time></trkpt><trkpt lat="44.4256893" lon="11.4264595"><ele>85.0</ele><time>2026-04-11T07:59:43.242Z</time></trkpt><trkpt lat="44.4255925" lon="11.4264017"><ele>83.0</ele><time>2026-04-11T07:59:44.242Z</time></trkpt><trkpt lat="44.425495" lon="11.4263438"><ele>83.75</ele><time>2026-04-11T07:59:45.241Z</time></trkpt><trkpt lat="44.4253928" lon="11.4262838"><ele>84.5</ele><time>2026-04-11T07:59:46.241Z</time></trkpt><trkpt lat="44.4252848" lon="11.426221"><ele>85.25</ele><time>2026-04-11T07:59:47.242Z</time></trkpt><trkpt lat="44.4251715" lon="11.4261583"><ele>86.0</ele><time>2026-04-11T07:59:48.243Z</time></trkpt><trkpt lat="44.425058" lon="11.4260927"><ele>86.0</ele><time>2026-04-11T07:59:49.243Z</time></trkpt><trkpt lat="44.4249435" lon="11.4260248"><ele>86.0</ele><time>2026-04-11T07:59:50.244Z</time></trkpt><trkpt lat="44.4248265" lon="11.4259573"><ele>86.0</ele><time>2026-04-11T07:59:51.245Z</time></trkpt><trkpt lat="44.424705" lon="11.4258898"><ele>86.0</ele><time>2026-04-11T07:59:52.243Z</time></trkpt><trkpt lat="44.4245823" lon="11.4258187"><ele>84.75</ele><time>2026-04-11T07:59:53.244Z</time></trkpt><trkpt lat="44.4244568" lon="11.4257455"><ele>83.5</ele><time>2026-04-11T07:59:54.248Z</time></trkpt><trkpt lat="44.4243287" lon="11.4256733"><ele>82.25</ele><time>2026-04-11T07:59:55.244Z</time></trkpt><trkpt lat="44.4241995" lon="11.4256028"><ele>81.0</ele><time>2026-04-11T07:59:56.246Z</time></trkpt><trkpt lat="44.4240708" lon="11.4255335"><ele>81.75</ele><time>2026-04-11T07:59:57.244Z</time></trkpt><trkpt lat="44.4239423" lon="11.425464"><ele>82.5</ele><time>2026-04-11T07:59:58.244Z</time></trkpt><trkpt lat="44.4238127" lon="11.4253925"><ele>83.25</ele><time>2026-04-11T07:59:59.245Z</time></trkpt><trkpt lat="44.4236828" lon="11.42532"><ele>84.0</ele><time>2026-04-11T08:00:00.245Z</time></trkpt><trkpt lat="44.4235502" lon="11.4252435"><ele>84.33333333333333</ele><time>2026-04-11T08:00:01.244Z</time></trkpt><trkpt lat="44.423413" lon="11.4251645"><ele>84.66666666666666</ele><time>2026-04-11T08:00:02.245Z</time></trkpt><trkpt lat="44.4232728" lon="11.4250852"><ele>85.0</ele><time>2026-04-11T08:00:03.243Z</time></trkpt><trkpt lat="44.4231325" lon="11.4250075"><ele>85.0</ele><time>2026-04-11T08:00:04.243Z</time></trkpt><trkpt lat="44.4229935" lon="11.4249342"><ele>85.0</ele><time>2026-04-11T08:00:05.245Z</time></trkpt><trkpt lat="44.4228545" lon="11.424858"><ele>85.0</ele><time>2026-04-11T08:00:06.244Z</time></trkpt><trkpt lat="44.422717" lon="11.4247828"><ele>85.0</ele><time>2026-04-11T08:00:07.243Z</time></trkpt><trkpt lat="44.422581" lon="11.424707"><ele>85.0</ele><time>2026-04-11T08:00:08.243Z</time></trkpt><trkpt lat="44.4224448" lon="11.4246302"><ele>85.0</ele><time>2026-04-11T08:00:09.241Z</time></trkpt><trkpt lat="44.4223083" lon="11.4245515"><ele>85.0</ele><time>2026-04-11T08:00:10.24Z</time></trkpt><trkpt lat="44.4221702" lon="11.4244692"><ele>85.0</ele><time>2026-04-11T08:00:11.242Z</time></trkpt><trkpt lat="44.4220348" lon="11.4243893"><ele>85.0</ele><time>2026-04-11T08:00:12.244Z</time></trkpt><trkpt lat="44.4219077" lon="11.4243122"><ele>85.0</ele><time>2026-04-11T08:00:13.244Z</time></trkpt><trkpt lat="44.421786" lon="11.424233"><ele>85.0</ele><time>2026-04-11T08:00:14.244Z</time></trkpt><trkpt lat="44.421658" lon="11.4241553"><ele>85.0</ele><time>2026-04-11T08:00:15.244Z</time></trkpt><trkpt lat="44.4215265" lon="11.4240772"><ele>85.0</ele><time>2026-04-11T08:00:16.243Z</time></trkpt><trkpt lat="44.4213902" lon="11.4239992"><ele>85.0</ele><time>2026-04-11T08:00:17.244Z</time></trkpt><trkpt lat="44.4212528" lon="11.4239215"><ele>85.0</ele><time>2026-04-11T08:00:18.244Z</time></trkpt><trkpt lat="44.4211128" lon="11.423845"><ele>85.0</ele><time>2026-04-11T08:00:19.243Z</time></trkpt><trkpt lat="44.4209702" lon="11.4237712"><ele>89.0</ele><time>2026-04-11T08:00:20.244Z</time></trkpt><trkpt lat="44.4208263" lon="11.4237003"><ele>93.0</ele><time>2026-04-11T08:00:21.242Z</time></trkpt><trkpt lat="44.4206833" lon="11.4236315"><ele>97.0</ele><time>2026-04-11T08:00:22.242Z</time></trkpt><trkpt lat="44.4205375" lon="11.4235698"><ele>96.33333333333334</ele><time>2026-04-11T08:00:23.242Z</time></trkpt><trkpt lat="44.420394" lon="11.4235018"><ele>95.66666666666667</ele><time>2026-04-11T08:00:24.242Z</time></trkpt><trkpt lat="44.4202518" lon="11.4234353"><ele>95.0</ele><time>2026-04-11T08:00:25.241Z</time></trkpt><trkpt lat="44.4201012" lon="11.4233708"><ele>95.0</ele><time>2026-04-11T08:00:26.243Z</time></trkpt><trkpt lat="44.4199447" lon="11.4233217"><ele>95.0</ele><time>2026-04-11T08:00:27.243Z</time></trkpt><trkpt lat="44.4197852" lon="11.4232748"><ele>95.0</ele><time>2026-04-11T08:00:28.241Z</time></trkpt><trkpt lat="44.419625" lon="11.423239"><ele>93.66666666666667</ele><time>2026-04-11T08:00:29.241Z</time></trkpt><trkpt lat="44.4194668" lon="11.4232173"><ele>92.33333333333333</ele><time>2026-04-11T08:00:30.242Z</time></trkpt><trkpt lat="44.4193108" lon="11.4231958"><ele>91.0</ele><time>2026-04-11T08:00:31.243Z</time></trkpt><trkpt lat="44.4191638" lon="11.423159"><ele>91.0</ele><time>2026-04-11T08:00:32.242Z</time></trkpt><trkpt lat="44.419013" lon="11.423112"><ele>91.0</ele><time>2026-04-11T08:00:33.24Z</time></trkpt><trkpt lat="44.4188533" lon="11.4230747"><ele>91.0</ele><time>2026-04-11T08:00:34.242Z</time></trkpt><trkpt lat="44.4186908" lon="11.4230523"><ele>90.66666666666666</ele><time>2026-04-11T08:00:35.241Z</time></trkpt><trkpt lat="44.4185198" lon="11.4230427"><ele>90.33333333333333</ele><time>2026-04-11T08:00:36.242Z</time></trkpt><trkpt lat="44.4183495" lon="11.423036"><ele>90.0</ele><time>2026-04-11T08:00:37.243Z</time></trkpt><trkpt lat="44.4181788" lon="11.4230427"><ele>90.0</ele><time>2026-04-11T08:00:38.242Z</time></trkpt><trkpt lat="44.4180103" lon="11.423059"><ele>90.0</ele><time>2026-04-11T08:00:39.242Z</time></trkpt><trkpt lat="44.417842" lon="11.423084"><ele>90.0</ele><time>2026-04-11T08:00:40.242Z</time></trkpt><trkpt lat="44.417677" lon="11.4231035"><ele>91.0</ele><time>2026-04-11T08:00:41.244Z</time></trkpt><trkpt lat="44.4175125" lon="11.4231258"><ele>92.0</ele><time>2026-04-11T08:00:42.244Z</time></trkpt><trkpt lat="44.4173507" lon="11.4231535"><ele>93.0</ele><time>2026-04-11T08:00:43.243Z</time></trkpt><trkpt lat="44.4171887" lon="11.4231862"><ele>92.66666666666667</ele><time>2026-04-11T08:00:44.243Z</time></trkpt><trkpt lat="44.4170235" lon="11.4232222"><ele>92.33333333333334</ele><time>2026-04-11T08:00:45.243Z</time></trkpt><trkpt lat="44.4168625" lon="11.4232597"><ele>92.0</ele><time>2026-04-11T08:00:46.244Z</time></trkpt><trkpt lat="44.4167028" lon="11.4233008"><ele>92.0</ele><time>2026-04-11T08:00:47.244Z</time></trkpt><trkpt lat="44.4165435" lon="11.4233423"><ele>92.0</ele><time>2026-04-11T08:00:48.244Z</time></trkpt><trkpt lat="44.4163805" lon="11.4233883"><ele>92.0</ele><time>2026-04-11T08:00:49.243Z</time></trkpt><trkpt lat="44.4162138" lon="11.4234348"><ele>91.66666666666667</ele><time>2026-04-11T08:00:50.245Z</time></trkpt><trkpt lat="44.416047" lon="11.4234797"><ele>91.33333333333333</ele><time>2026-04-11T08:00:51.243Z</time></trkpt><trkpt lat="44.41588" lon="11.423522"><ele>91.0</ele><time>2026-04-11T08:00:52.243Z</time></trkpt><trkpt lat="44.4157175" lon="11.4235653"><ele>91.0</ele><time>2026-04-11T08:00:53.244Z</time></trkpt><trkpt lat="44.4155562" lon="11.423612"><ele>91.0</ele><time>2026-04-11T08:00:54.243Z</time></trkpt><trkpt lat="44.415394" lon="11.423658"><ele>91.0</ele><time>2026-04-11T08:00:55.244Z</time></trkpt><trkpt lat="44.4152332" lon="11.4237038"><ele>91.0</ele><time>2026-04-11T08:00:56.243Z</time></trkpt><trkpt lat="44.4150735" lon="11.4237468"><ele>91.0</ele><time>2026-04-11T08:00:57.24Z</time></trkpt><trkpt lat="44.414916" lon="11.4237887"><ele>91.0</ele><time>2026-04-11T08:00:58.241Z</time></trkpt><trkpt lat="44.414757" lon="11.4238305"><ele>92.0</ele><time>2026-04-11T08:00:59.241Z</time></trkpt><trkpt lat="44.4146013" lon="11.4238715"><ele>93.0</ele><time>2026-04-11T08:01:00.242Z</time></trkpt><trkpt lat="44.4144485" lon="11.4239112"><ele>94.0</ele><time>2026-04-11T08:01:01.245Z</time></trkpt><trkpt lat="44.4143012" lon="11.4239507"><ele>94.0</ele><time>2026-04-11T08:01:02.245Z</time></trkpt><trkpt lat="44.4141535" lon="11.4239933"><ele>94.0</ele><time>2026-04-11T08:01:03.242Z</time></trkpt><trkpt lat="44.414005" lon="11.4240382"><ele>94.0</ele><time>2026-04-11T08:01:04.243Z</time></trkpt><trkpt lat="44.4138547" lon="11.4240813"><ele>94.33333333333333</ele><time>2026-04-11T08:01:05.244Z</time></trkpt><trkpt lat="44.413704" lon="11.4241257"><ele>94.66666666666667</ele><time>2026-04-11T08:01:06.244Z</time></trkpt><trkpt lat="44.4135518" lon="11.424171"><ele>95.0</ele><time>2026-04-11T08:01:07.243Z</time></trkpt><trkpt lat="44.4133972" lon="11.4242163"><ele>95.0</ele><time>2026-04-11T08:01:08.244Z</time></trkpt><trkpt lat="44.4132412" lon="11.4242585"><ele>95.0</ele><time>2026-04-11T08:01:09.245Z</time></trkpt><trkpt lat="44.4130857" lon="11.4242995"><ele>95.0</ele><time>2026-04-11T08:01:10.244Z</time></trkpt><trkpt lat="44.4129298" lon="11.4243422"><ele>94.66666666666667</ele><time>2026-04-11T08:01:11.246Z</time></trkpt><trkpt lat="44.4127695" lon="11.4243848"><ele>94.33333333333333</ele><time>2026-04-11T08:01:12.243Z</time></trkpt><trkpt lat="44.4126107" lon="11.4244277"><ele>94.0</ele><time>2026-04-11T08:01:13.243Z</time></trkpt><trkpt lat="44.4124513" lon="11.4244693"><ele>94.0</ele><time>2026-04-11T08:01:14.244Z</time></trkpt><trkpt lat="44.4122922" lon="11.4245107"><ele>94.0</ele><time>2026-04-11T08:01:15.245Z</time></trkpt><trkpt lat="44.4121348" lon="11.4245503"><ele>94.0</ele><time>2026-04-11T08:01:16.244Z</time></trkpt><trkpt lat="44.4119792" lon="11.4245925"><ele>94.0</ele><time>2026-04-11T08:01:17.245Z</time></trkpt><trkpt lat="44.4118262" lon="11.4246358"><ele>94.0</ele><time>2026-04-11T08:01:18.245Z</time></trkpt><trkpt lat="44.4116735" lon="11.4246792"><ele>94.0</ele><time>2026-04-11T08:01:19.246Z</time></trkpt><trkpt lat="44.4115225" lon="11.424723"><ele>94.0</ele><time>2026-04-11T08:01:20.246Z</time></trkpt><trkpt lat="44.4113697" lon="11.4247673"><ele>94.0</ele><time>2026-04-11T08:01:21.244Z</time></trkpt><trkpt lat="44.4112187" lon="11.4248122"><ele>94.0</ele><time>2026-04-11T08:01:22.242Z</time></trkpt><trkpt lat="44.411066" lon="11.4248587"><ele>94.33333333333333</ele><time>2026-04-11T08:01:23.242Z</time></trkpt><trkpt lat="44.4109133" lon="11.4249035"><ele>94.66666666666667</ele><time>2026-04-11T08:01:24.243Z</time></trkpt><trkpt lat="44.410763" lon="11.4249423"><ele>95.0</ele><time>2026-04-11T08:01:25.244Z</time></trkpt><trkpt lat="44.4106185" lon="11.4249697"><ele>95.25</ele><time>2026-04-11T08:01:26.245Z</time></trkpt><trkpt lat="44.4104822" lon="11.4249788"><ele>95.5</ele><time>2026-04-11T08:01:27.243Z</time></trkpt><trkpt lat="44.410347" lon="11.424975"><ele>95.75</ele><time>2026-04-11T08:01:28.243Z</time></trkpt><trkpt lat="44.4102197" lon="11.424964"><ele>96.0</ele><time>2026-04-11T08:01:29.244Z</time></trkpt><trkpt lat="44.4100965" lon="11.4249507"><ele>96.0</ele><time>2026-04-11T08:01:30.243Z</time></trkpt><trkpt lat="44.4099698" lon="11.4249392"><ele>96.0</ele><time>2026-04-11T08:01:31.243Z</time></trkpt><trkpt lat="44.4098427" lon="11.4249288"><ele>96.0</ele><time>2026-04-11T08:01:32.243Z</time></trkpt><trkpt lat="44.4097128" lon="11.4249185"><ele>96.0</ele><time>2026-04-11T08:01:33.244Z</time></trkpt><trkpt lat="44.4095815" lon="11.4249075"><ele>96.25</ele><time>2026-04-11T08:01:34.244Z</time></trkpt><trkpt lat="44.409452" lon="11.4248968"><ele>96.5</ele><time>2026-04-11T08:01:35.243Z</time></trkpt><trkpt lat="44.4093228" lon="11.4248845"><ele>96.75</ele><time>2026-04-11T08:01:36.243Z</time></trkpt><trkpt lat="44.409192" lon="11.4248733"><ele>97.0</ele><time>2026-04-11T08:01:37.244Z</time></trkpt><trkpt lat="44.40906" lon="11.4248647"><ele>97.0</ele><time>2026-04-11T08:01:38.244Z</time></trkpt><trkpt lat="44.4089213" lon="11.4248517"><ele>97.0</ele><time>2026-04-11T08:01:39.244Z</time></trkpt><trkpt lat="44.4087802" lon="11.424838"><ele>97.0</ele><time>2026-04-11T08:01:40.243Z</time></trkpt><trkpt lat="44.4086323" lon="11.4248242"><ele>97.0</ele><time>2026-04-11T08:01:41.244Z</time></trkpt><trkpt lat="44.4084788" lon="11.42481"><ele>96.33333333333334</ele><time>2026-04-11T08:01:42.242Z</time></trkpt><trkpt lat="44.4083182" lon="11.4247947"><ele>95.66666666666667</ele><time>2026-04-11T08:01:43.244Z</time></trkpt><trkpt lat="44.4081577" lon="11.4247787"><ele>95.0</ele><time>2026-04-11T08:01:44.245Z</time></trkpt><trkpt lat="44.407997" lon="11.4247635"><ele>95.0</ele><time>2026-04-11T08:01:45.245Z</time></trkpt><trkpt lat="44.4078308" lon="11.4247487"><ele>95.0</ele><time>2026-04-11T08:01:46.244Z</time></trkpt><trkpt lat="44.4076602" lon="11.424736"><ele>95.0</ele><time>2026-04-11T08:01:47.243Z</time></trkpt><trkpt lat="44.4074847" lon="11.4247245"><ele>95.0</ele><time>2026-04-11T08:01:48.243Z</time></trkpt><trkpt lat="44.4073063" lon="11.424712"><ele>95.0</ele><time>2026-04-11T08:01:49.243Z</time></trkpt><trkpt lat="44.4071293" lon="11.4246978"><ele>95.0</ele><time>2026-04-11T08:01:50.245Z</time></trkpt><trkpt lat="44.4069603" lon="11.4246802"><ele>95.66666666666667</ele><time>2026-04-11T08:01:51.244Z</time></trkpt><trkpt lat="44.4068002" lon="11.4246583"><ele>96.33333333333334</ele><time>2026-04-11T08:01:52.244Z</time></trkpt><trkpt lat="44.406643" lon="11.4246275"><ele>97.0</ele><time>2026-04-11T08:01:53.243Z</time></trkpt><trkpt lat="44.4064905" lon="11.4245852"><ele>97.25</ele><time>2026-04-11T08:01:54.243Z</time></trkpt><trkpt lat="44.4063475" lon="11.4245265"><ele>97.5</ele><time>2026-04-11T08:01:55.243Z</time></trkpt><trkpt lat="44.4062157" lon="11.4244517"><ele>97.75</ele><time>2026-04-11T08:01:56.244Z</time></trkpt><trkpt lat="44.4060918" lon="11.424363"><ele>98.0</ele><time>2026-04-11T08:01:57.244Z</time></trkpt><trkpt lat="44.4059722" lon="11.4242597"><ele>98.75</ele><time>2026-04-11T08:01:58.243Z</time></trkpt><trkpt lat="44.4058582" lon="11.4241427"><ele>99.5</ele><time>2026-04-11T08:01:59.244Z</time></trkpt><trkpt lat="44.4057527" lon="11.424017"><ele>100.25</ele><time>2026-04-11T08:02:00.245Z</time></trkpt><trkpt lat="44.4056557" lon="11.423882"><ele>101.0</ele><time>2026-04-11T08:02:01.243Z</time></trkpt><trkpt lat="44.4055648" lon="11.4237458"><ele>103.25</ele><time>2026-04-11T08:02:02.245Z</time></trkpt><trkpt lat="44.4054758" lon="11.4236098"><ele>105.5</ele><time>2026-04-11T08:02:03.243Z</time></trkpt><trkpt lat="44.4053828" lon="11.4234822"><ele>107.75</ele><time>2026-04-11T08:02:04.243Z</time></trkpt><trkpt lat="44.405286" lon="11.4233592"><ele>110.0</ele><time>2026-04-11T08:02:05.243Z</time></trkpt><trkpt lat="44.4051852" lon="11.4232437"><ele>110.0</ele><time>2026-04-11T08:02:06.242Z</time></trkpt><trkpt lat="44.4050743" lon="11.4231347"><ele>110.0</ele><time>2026-04-11T08:02:07.243Z</time></trkpt><trkpt lat="44.404957" lon="11.423039"><ele>110.0</ele><time>2026-04-11T08:02:08.244Z</time></trkpt><trkpt lat="44.4048308" lon="11.4229545"><ele>110.0</ele><time>2026-04-11T08:02:09.245Z</time></trkpt><trkpt lat="44.404701" lon="11.422882"><ele>112.5</ele><time>2026-04-11T08:02:10.242Z</time></trkpt><trkpt lat="44.4045715" lon="11.4228257"><ele>115.0</ele><time>2026-04-11T08:02:11.241Z</time></trkpt><trkpt lat="44.404424" lon="11.4227792"><ele>117.5</ele><time>2026-04-11T08:02:12.241Z</time></trkpt><trkpt lat="44.4042782" lon="11.4227467"><ele>120.0</ele><time>2026-04-11T08:02:13.241Z</time></trkpt><trkpt lat="44.404135" lon="11.4227275"><ele>120.0</ele><time>2026-04-11T08:02:14.243Z</time></trkpt><trkpt lat="44.403993" lon="11.4227233"><ele>120.0</ele><time>2026-04-11T08:02:15.243Z</time></trkpt><trkpt lat="44.4038515" lon="11.4227343"><ele>120.0</ele><time>2026-04-11T08:02:16.242Z</time></trkpt><trkpt lat="44.40371" lon="11.4227627"><ele>120.0</ele><time>2026-04-11T08:02:17.244Z</time></trkpt><trkpt lat="44.4035773" lon="11.4228037"><ele>120.25</ele><time>2026-04-11T08:02:18.242Z</time></trkpt><trkpt lat="44.4034518" lon="11.4228562"><ele>120.5</ele><time>2026-04-11T08:02:19.241Z</time></trkpt><trkpt lat="44.4033267" lon="11.4229202"><ele>120.75</ele><time>2026-04-11T08:02:20.242Z</time></trkpt><trkpt lat="44.4032018" lon="11.4229988"><ele>121.0</ele><time>2026-04-11T08:02:21.242Z</time></trkpt><trkpt lat="44.403078" lon="11.4230727"><ele>116.5</ele><time>2026-04-11T08:02:22.243Z</time></trkpt><trkpt lat="44.402951" lon="11.4231477"><ele>112.0</ele><time>2026-04-11T08:02:23.242Z</time></trkpt><trkpt lat="44.4028258" lon="11.4232202"><ele>107.5</ele><time>2026-04-11T08:02:24.243Z</time></trkpt><trkpt lat="44.402696" lon="11.423293"><ele>103.0</ele><time>2026-04-11T08:02:25.243Z</time></trkpt><trkpt lat="44.40257" lon="11.423362"><ele>103.0</ele><time>2026-04-11T08:02:26.242Z</time></trkpt><trkpt lat="44.4024538" lon="11.4234258"><ele>103.0</ele><time>2026-04-11T08:02:27.244Z</time></trkpt><trkpt lat="44.4023378" lon="11.4234903"><ele>103.0</ele><time>2026-04-11T08:02:28.243Z</time></trkpt><trkpt lat="44.4022172" lon="11.4235572"><ele>103.0</ele><time>2026-04-11T08:02:29.245Z</time></trkpt><trkpt lat="44.4020945" lon="11.4236272"><ele>102.80000000000001</ele><time>2026-04-11T08:02:30.244Z</time></trkpt><trkpt lat="44.4019808" lon="11.423692"><ele>102.6</ele><time>2026-04-11T08:02:31.245Z</time></trkpt><trkpt lat="44.4018748" lon="11.4237487"><ele>102.4</ele><time>2026-04-11T08:02:32.246Z</time></trkpt><trkpt lat="44.4017828" lon="11.423797"><ele>102.19999999999999</ele><time>2026-04-11T08:02:33.246Z</time></trkpt><trkpt lat="44.4016982" lon="11.4238432"><ele>102.0</ele><time>2026-04-11T08:02:34.244Z</time></trkpt><trkpt lat="44.4016213" lon="11.4238847"><ele>102.0</ele><time>2026-04-11T08:02:35.242Z</time></trkpt><trkpt lat="44.4015502" lon="11.4239223"><ele>102.0</ele><time>2026-04-11T08:02:36.243Z</time></trkpt><trkpt lat="44.4014772" lon="11.4239632"><ele>102.0</ele><time>2026-04-11T08:02:37.243Z</time></trkpt><trkpt lat="44.401403" lon="11.424005"><ele>102.0</ele><time>2026-04-11T08:02:38.244Z</time></trkpt><trkpt lat="44.4013255" lon="11.4240478"><ele>102.0</ele><time>2026-04-11T08:02:39.248Z</time></trkpt><trkpt lat="44.4012517" lon="11.4240882"><ele>102.0</ele><time>2026-04-11T08:02:40.246Z</time></trkpt><trkpt lat="44.4011832" lon="11.424128"><ele>102.42857142857143</ele><time>2026-04-11T08:02:41.246Z</time></trkpt><trkpt lat="44.4011157" lon="11.4241663"><ele>102.85714285714286</ele><time>2026-04-11T08:02:42.245Z</time></trkpt><trkpt lat="44.4010462" lon="11.4242062"><ele>103.28571428571428</ele><time>2026-04-11T08:02:43.245Z</time></trkpt><trkpt lat="44.4009782" lon="11.4242432"><ele>103.71428571428572</ele><time>2026-04-11T08:02:44.245Z</time></trkpt><trkpt lat="44.4009118" lon="11.4242803"><ele>104.14285714285714</ele><time>2026-04-11T08:02:45.244Z</time></trkpt><trkpt lat="44.4008435" lon="11.4243222"><ele>104.57142857142857</ele><time>2026-04-11T08:02:46.245Z</time></trkpt><trkpt lat="44.4007702" lon="11.4243638"><ele>105.0</ele><time>2026-04-11T08:02:47.244Z</time></trkpt><trkpt lat="44.4006935" lon="11.4244078"><ele>105.0</ele><time>2026-04-11T08:02:48.246Z</time></trkpt><trkpt lat="44.400616" lon="11.4244555"><ele>105.0</ele><time>2026-04-11T08:02:49.245Z</time></trkpt><trkpt lat="44.4005382" lon="11.4245048"><ele>105.0</ele><time>2026-04-11T08:02:50.244Z</time></trkpt><trkpt lat="44.4004647" lon="11.4245513"><ele>105.0</ele><time>2026-04-11T08:02:51.245Z</time></trkpt><trkpt lat="44.400395" lon="11.4245937"><ele>105.0</ele><time>2026-04-11T08:02:52.245Z</time></trkpt><trkpt lat="44.4003227" lon="11.4246388"><ele>105.0</ele><time>2026-04-11T08:02:53.246Z</time></trkpt><trkpt lat="44.4002483" lon="11.4246833"><ele>105.16666666666667</ele><time>2026-04-11T08:02:54.247Z</time></trkpt><trkpt lat="44.400175" lon="11.4247222"><ele>105.33333333333334</ele><time>2026-04-11T08:02:55.246Z</time></trkpt><trkpt lat="44.4000987" lon="11.4247598"><ele>105.5</ele><time>2026-04-11T08:02:56.246Z</time></trkpt><trkpt lat="44.4000195" lon="11.424804"><ele>105.66666666666667</ele><time>2026-04-11T08:02:57.245Z</time></trkpt><trkpt lat="44.399936" lon="11.4248528"><ele>105.83333333333334</ele><time>2026-04-11T08:02:58.245Z</time></trkpt><trkpt lat="44.399847" lon="11.4249033"><ele>106.0</ele><time>2026-04-11T08:02:59.244Z</time></trkpt><trkpt lat="44.3997532" lon="11.4249562"><ele>106.6</ele><time>2026-04-11T08:03:00.243Z</time></trkpt><trkpt lat="44.3996585" lon="11.4250118"><ele>107.19999999999999</ele><time>2026-04-11T08:03:01.244Z</time></trkpt><trkpt lat="44.3995705" lon="11.425065"><ele>107.80000000000001</ele><time>2026-04-11T08:03:02.246Z</time></trkpt><trkpt lat="44.3994785" lon="11.4251193"><ele>108.4</ele><time>2026-04-11T08:03:03.244Z</time></trkpt><trkpt lat="44.3993843" lon="11.4251713"><ele>109.0</ele><time>2026-04-11T08:03:04.245Z</time></trkpt><trkpt lat="44.3992847" lon="11.4252277"><ele>109.0</ele><time>2026-04-11T08:03:05.245Z</time></trkpt><trkpt lat="44.3991793" lon="11.4252887"><ele>109.0</ele><time>2026-04-11T08:03:06.246Z</time></trkpt><trkpt lat="44.399068" lon="11.4253503"><ele>109.0</ele><time>2026-04-11T08:03:07.246Z</time></trkpt><trkpt lat="44.398955" lon="11.4254143"><ele>109.0</ele><time>2026-04-11T08:03:08.246Z</time></trkpt><trkpt lat="44.3988418" lon="11.42548"><ele>109.25</ele><time>2026-04-11T08:03:09.246Z</time></trkpt><trkpt lat="44.3987328" lon="11.4255432"><ele>109.5</ele><time>2026-04-11T08:03:10.246Z</time></trkpt><trkpt lat="44.3986255" lon="11.4256058"><ele>109.75</ele><time>2026-04-11T08:03:11.244Z</time></trkpt><trkpt lat="44.3985177" lon="11.4256682"><ele>110.0</ele><time>2026-04-11T08:03:12.246Z</time></trkpt><trkpt lat="44.3984095" lon="11.4257298"><ele>110.0</ele><time>2026-04-11T08:03:13.244Z</time></trkpt><trkpt lat="44.3983027" lon="11.4257903"><ele>110.0</ele><time>2026-04-11T08:03:14.245Z</time></trkpt><trkpt lat="44.3981972" lon="11.4258495"><ele>110.0</ele><time>2026-04-11T08:03:15.245Z</time></trkpt><trkpt lat="44.398092" lon="11.4259092"><ele>110.0</ele><time>2026-04-11T08:03:16.244Z</time></trkpt><trkpt lat="44.3979828" lon="11.4259723"><ele>110.0</ele><time>2026-04-11T08:03:17.248Z</time></trkpt><trkpt lat="44.3978712" lon="11.4260372"><ele>110.0</ele><time>2026-04-11T08:03:18.247Z</time></trkpt><trkpt lat="44.3977595" lon="11.4261032"><ele>110.0</ele><time>2026-04-11T08:03:19.246Z</time></trkpt><trkpt lat="44.3976495" lon="11.4261658"><ele>110.0</ele><time>2026-04-11T08:03:20.248Z</time></trkpt><trkpt lat="44.3975408" lon="11.4262263"><ele>110.0</ele><time>2026-04-11T08:03:21.246Z</time></trkpt><trkpt lat="44.397432" lon="11.4262843"><ele>110.0</ele><time>2026-04-11T08:03:22.248Z</time></trkpt><trkpt lat="44.3973203" lon="11.4263423"><ele>110.0</ele><time>2026-04-11T08:03:23.245Z</time></trkpt><trkpt lat="44.3972063" lon="11.4263958"><ele>110.0</ele><time>2026-04-11T08:03:24.244Z</time></trkpt><trkpt lat="44.3970902" lon="11.4264415"><ele>109.5</ele><time>2026-04-11T08:03:25.244Z</time></trkpt><trkpt lat="44.3969778" lon="11.4264812"><ele>109.0</ele><time>2026-04-11T08:03:26.243Z</time></trkpt><trkpt lat="44.3968635" lon="11.4265145"><ele>108.5</ele><time>2026-04-11T08:03:27.241Z</time></trkpt><trkpt lat="44.3967455" lon="11.4265457"><ele>108.0</ele><time>2026-04-11T08:03:28.243Z</time></trkpt><trkpt lat="44.396621" lon="11.4265762"><ele>108.0</ele><time>2026-04-11T08:03:29.245Z</time></trkpt><trkpt lat="44.3964925" lon="11.426602"><ele>108.0</ele><time>2026-04-11T08:03:30.245Z</time></trkpt><trkpt lat="44.396368" lon="11.4266285"><ele>108.0</ele><time>2026-04-11T08:03:31.244Z</time></trkpt><trkpt lat="44.3962392" lon="11.4266562"><ele>108.0</ele><time>2026-04-11T08:03:32.245Z</time></trkpt><trkpt lat="44.3961165" lon="11.4266828"><ele>108.60000000000001</ele><time>2026-04-11T08:03:33.246Z</time></trkpt><trkpt lat="44.3960102" lon="11.4267055"><ele>109.20000000000002</ele><time>2026-04-11T08:03:34.246Z</time></trkpt><trkpt lat="44.3959143" lon="11.4267247"><ele>109.8</ele><time>2026-04-11T08:03:35.248Z</time></trkpt><trkpt lat="44.3958273" lon="11.4267435"><ele>110.4</ele><time>2026-04-11T08:03:36.246Z</time></trkpt><trkpt lat="44.3957477" lon="11.42676"><ele>111.0</ele><time>2026-04-11T08:03:37.246Z</time></trkpt><trkpt lat="44.3956665" lon="11.4267767"><ele>111.0</ele><time>2026-04-11T08:03:38.246Z</time></trkpt><trkpt lat="44.3955802" lon="11.4267967"><ele>111.0</ele><time>2026-04-11T08:03:39.245Z</time></trkpt><trkpt lat="44.3954895" lon="11.4268195"><ele>111.0</ele><time>2026-04-11T08:03:40.245Z</time></trkpt><trkpt lat="44.3953962" lon="11.4268425"><ele>111.0</ele><time>2026-04-11T08:03:41.245Z</time></trkpt><trkpt lat="44.3953013" lon="11.426865"><ele>111.0</ele><time>2026-04-11T08:03:42.245Z</time></trkpt><trkpt lat="44.3952065" lon="11.4268915"><ele>111.0</ele><time>2026-04-11T08:03:43.245Z</time></trkpt><trkpt lat="44.3951073" lon="11.4269147"><ele>111.0</ele><time>2026-04-11T08:03:44.245Z</time></trkpt><trkpt lat="44.3950078" lon="11.4269377"><ele>111.0</ele><time>2026-04-11T08:03:45.244Z</time></trkpt><trkpt lat="44.3949095" lon="11.4269618"><ele>111.0</ele><time>2026-04-11T08:03:46.244Z</time></trkpt><trkpt lat="44.3948315" lon="11.4269828"><ele>111.0</ele><time>2026-04-11T08:03:47.245Z</time></trkpt><trkpt lat="44.3947392" lon="11.4270017"><ele>111.0</ele><time>2026-04-11T08:03:49.242Z</time></trkpt><trkpt lat="44.3946753" lon="11.427012"><ele>111.0</ele><time>2026-04-11T08:03:53.246Z</time></trkpt><trkpt lat="44.3945833" lon="11.4269697"><ele>111.0</ele><time>2026-04-11T08:04:19.243Z</time></trkpt><trkpt lat="44.3945378" lon="11.426874"><ele>111.0</ele><time>2026-04-11T08:04:22.245Z</time></trkpt><trkpt lat="44.394512" lon="11.4267113"><ele>111.0</ele><time>2026-04-11T08:04:24.244Z</time></trkpt><trkpt lat="44.394493" lon="11.4266108"><ele>111.0</ele><time>2026-04-11T08:04:25.244Z</time></trkpt><trkpt lat="44.3944728" lon="11.4265027"><ele>111.33333333333333</ele><time>2026-04-11T08:04:26.245Z</time></trkpt><trkpt lat="44.394456" lon="11.4263947"><ele>111.66666666666666</ele><time>2026-04-11T08:04:27.245Z</time></trkpt><trkpt lat="44.3944348" lon="11.4262887"><ele>112.0</ele><time>2026-04-11T08:04:28.244Z</time></trkpt><trkpt lat="44.3944173" lon="11.4261742"><ele>112.33333333333333</ele><time>2026-04-11T08:04:29.242Z</time></trkpt><trkpt lat="44.3943923" lon="11.426055"><ele>112.66666666666666</ele><time>2026-04-11T08:04:30.243Z</time></trkpt><trkpt lat="44.3943748" lon="11.4259308"><ele>113.0</ele><time>2026-04-11T08:04:31.242Z</time></trkpt><trkpt lat="44.3943578" lon="11.425817"><ele>113.99999999999999</ele><time>2026-04-11T08:04:32.242Z</time></trkpt><trkpt lat="44.3943362" lon="11.425698"><ele>115.0</ele><time>2026-04-11T08:04:33.242Z</time></trkpt><trkpt lat="44.3943155" lon="11.4255877"><ele>116.0</ele><time>2026-04-11T08:04:34.242Z</time></trkpt><trkpt lat="44.3942978" lon="11.4254875"><ele>117.0</ele><time>2026-04-11T08:04:35.241Z</time></trkpt><trkpt lat="44.3942823" lon="11.4253725"><ele>117.99999999999999</ele><time>2026-04-11T08:04:36.243Z</time></trkpt><trkpt lat="44.3942635" lon="11.4252607"><ele>119.0</ele><time>2026-04-11T08:04:37.24Z</time></trkpt><trkpt lat="44.3942457" lon="11.4251487"><ele>119.80000000000001</ele><time>2026-04-11T08:04:38.24Z</time></trkpt><trkpt lat="44.3942283" lon="11.425037"><ele>120.60000000000001</ele><time>2026-04-11T08:04:39.24Z</time></trkpt><trkpt lat="44.3942012" lon="11.4249108"><ele>121.4</ele><time>2026-04-11T08:04:40.239Z</time></trkpt><trkpt lat="44.3941672" lon="11.4247743"><ele>122.2</ele><time>2026-04-11T08:04:41.24Z</time></trkpt><trkpt lat="44.3941405" lon="11.4246483"><ele>123.0</ele><time>2026-04-11T08:04:42.241Z</time></trkpt><trkpt lat="44.394097" lon="11.424509"><ele>123.0</ele><time>2026-04-11T08:04:43.242Z</time></trkpt><trkpt lat="44.3940613" lon="11.4243825"><ele>123.00000000000001</ele><time>2026-04-11T08:04:44.24Z</time></trkpt><trkpt lat="44.3940303" lon="11.4242528"><ele>123.00000000000001</ele><time>2026-04-11T08:04:45.239Z</time></trkpt><trkpt lat="44.393999" lon="11.4241333"><ele>123.0</ele><time>2026-04-11T08:04:46.24Z</time></trkpt><trkpt lat="44.3939663" lon="11.4239938"><ele>123.0</ele><time>2026-04-11T08:04:47.242Z</time></trkpt><trkpt lat="44.3939343" lon="11.4238607"><ele>123.80000000000001</ele><time>2026-04-11T08:04:48.243Z</time></trkpt><trkpt lat="44.3939073" lon="11.4237277"><ele>124.60000000000001</ele><time>2026-04-11T08:04:49.242Z</time></trkpt><trkpt lat="44.3938797" lon="11.4236065"><ele>125.39999999999999</ele><time>2026-04-11T08:04:50.243Z</time></trkpt><trkpt lat="44.3938563" lon="11.4234907"><ele>126.19999999999999</ele><time>2026-04-11T08:04:51.243Z</time></trkpt><trkpt lat="44.3938222" lon="11.4233535"><ele>127.0</ele><time>2026-04-11T08:04:52.242Z</time></trkpt><trkpt lat="44.393784" lon="11.4232212"><ele>128.75</ele><time>2026-04-11T08:04:53.242Z</time></trkpt><trkpt lat="44.3937455" lon="11.423091"><ele>130.5</ele><time>2026-04-11T08:04:54.241Z</time></trkpt><trkpt lat="44.393707" lon="11.4229362"><ele>132.25</ele><time>2026-04-11T08:04:55.242Z</time></trkpt><trkpt lat="44.3936715" lon="11.4227827"><ele>134.0</ele><time>2026-04-11T08:04:56.243Z</time></trkpt><trkpt lat="44.393635" lon="11.4226223"><ele>134.0</ele><time>2026-04-11T08:04:57.239Z</time></trkpt><trkpt lat="44.3936007" lon="11.422468"><ele>134.0</ele><time>2026-04-11T08:04:58.24Z</time></trkpt><trkpt lat="44.3935657" lon="11.4223155"><ele>134.0</ele><time>2026-04-11T08:04:59.242Z</time></trkpt><trkpt lat="44.393528" lon="11.4221658"><ele>134.0</ele><time>2026-04-11T08:05:00.241Z</time></trkpt><trkpt lat="44.3934963" lon="11.4220345"><ele>134.0</ele><time>2026-04-11T08:05:01.242Z</time></trkpt><trkpt lat="44.3934597" lon="11.4218982"><ele>134.8</ele><time>2026-04-11T08:05:02.239Z</time></trkpt><trkpt lat="44.393431" lon="11.4217658"><ele>135.60000000000002</ele><time>2026-04-11T08:05:03.239Z</time></trkpt><trkpt lat="44.3934008" lon="11.4216322"><ele>136.4</ele><time>2026-04-11T08:05:04.239Z</time></trkpt><trkpt lat="44.3933677" lon="11.4214985"><ele>137.20000000000002</ele><time>2026-04-11T08:05:05.24Z</time></trkpt><trkpt lat="44.3933275" lon="11.4213518"><ele>138.0</ele><time>2026-04-11T08:05:06.241Z</time></trkpt><trkpt lat="44.3932868" lon="11.421209"><ele>139.33333333333334</ele><time>2026-04-11T08:05:07.242Z</time></trkpt><trkpt lat="44.3932488" lon="11.4210753"><ele>140.66666666666666</ele><time>2026-04-11T08:05:08.242Z</time></trkpt><trkpt lat="44.393207" lon="11.4209682"><ele>142.0</ele><time>2026-04-11T08:05:09.242Z</time></trkpt><trkpt lat="44.3931612" lon="11.4208972"><ele>143.33333333333331</ele><time>2026-04-11T08:05:10.242Z</time></trkpt><trkpt lat="44.3931048" lon="11.4208442"><ele>144.66666666666666</ele><time>2026-04-11T08:05:11.244Z</time></trkpt><trkpt lat="44.3930367" lon="11.4208257"><ele>146.0</ele><time>2026-04-11T08:05:12.242Z</time></trkpt><trkpt lat="44.392963" lon="11.4208477"><ele>146.2</ele><time>2026-04-11T08:05:13.244Z</time></trkpt><trkpt lat="44.3928892" lon="11.4209043"><ele>146.39999999999998</ele><time>2026-04-11T08:05:14.245Z</time></trkpt><trkpt lat="44.3928267" lon="11.4209882"><ele>146.6</ele><time>2026-04-11T08:05:15.245Z</time></trkpt><trkpt lat="44.3927848" lon="11.4211"><ele>146.79999999999998</ele><time>2026-04-11T08:05:16.245Z</time></trkpt><trkpt lat="44.3927455" lon="11.421231"><ele>147.0</ele><time>2026-04-11T08:05:17.244Z</time></trkpt><trkpt lat="44.3927132" lon="11.4213748"><ele>147.0</ele><time>2026-04-11T08:05:18.244Z</time></trkpt><trkpt lat="44.3926837" lon="11.4215393"><ele>147.0</ele><time>2026-04-11T08:05:19.244Z</time></trkpt><trkpt lat="44.3926503" lon="11.4217335"><ele>147.0</ele><time>2026-04-11T08:05:20.244Z</time></trkpt><trkpt lat="44.3926198" lon="11.4219308"><ele>147.0</ele><time>2026-04-11T08:05:21.245Z</time></trkpt><trkpt lat="44.3925903" lon="11.4221103"><ele>147.2</ele><time>2026-04-11T08:05:22.243Z</time></trkpt><trkpt lat="44.3925622" lon="11.422279"><ele>147.39999999999998</ele><time>2026-04-11T08:05:23.245Z</time></trkpt><trkpt lat="44.3925453" lon="11.4224338"><ele>147.60000000000002</ele><time>2026-04-11T08:05:24.243Z</time></trkpt><trkpt lat="44.3925425" lon="11.4225818"><ele>147.8</ele><time>2026-04-11T08:05:25.242Z</time></trkpt><trkpt lat="44.3925553" lon="11.4227303"><ele>148.0</ele><time>2026-04-11T08:05:26.243Z</time></trkpt><trkpt lat="44.3925717" lon="11.4228745"><ele>148.0</ele><time>2026-04-11T08:05:27.241Z</time></trkpt><trkpt lat="44.3925912" lon="11.4230015"><ele>148.0</ele><time>2026-04-11T08:05:28.242Z</time></trkpt><trkpt lat="44.3926227" lon="11.4231188"><ele>148.0</ele><time>2026-04-11T08:05:29.242Z</time></trkpt><trkpt lat="44.392653" lon="11.4232307"><ele>148.0</ele><time>2026-04-11T08:05:30.243Z</time></trkpt><trkpt lat="44.3926777" lon="11.4233318"><ele>148.0</ele><time>2026-04-11T08:05:31.245Z</time></trkpt><trkpt lat="44.3926942" lon="11.423428"><ele>148.0</ele><time>2026-04-11T08:05:32.243Z</time></trkpt><trkpt lat="44.3926658" lon="11.4235747"><ele>148.0</ele><time>2026-04-11T08:05:34.242Z</time></trkpt><trkpt lat="44.3925873" lon="11.4236528"><ele>148.0</ele><time>2026-04-11T08:05:36.245Z</time></trkpt><trkpt lat="44.3925147" lon="11.4236017"><ele>148.0</ele><time>2026-04-11T08:05:38.246Z</time></trkpt><trkpt lat="44.3924498" lon="11.423461"><ele>148.0</ele><time>2026-04-11T08:05:40.245Z</time></trkpt><trkpt lat="44.3924175" lon="11.4233728"><ele>148.0</ele><time>2026-04-11T08:05:41.247Z</time></trkpt><trkpt lat="44.3923838" lon="11.423273"><ele>148.0</ele><time>2026-04-11T08:05:42.244Z</time></trkpt><trkpt lat="44.3923397" lon="11.423172"><ele>148.0</ele><time>2026-04-11T08:05:43.244Z</time></trkpt><trkpt lat="44.3922855" lon="11.4230765"><ele>148.0</ele><time>2026-04-11T08:05:44.243Z</time></trkpt><trkpt lat="44.3922333" lon="11.4229818"><ele>148.0</ele><time>2026-04-11T08:05:45.243Z</time></trkpt><trkpt lat="44.3921888" lon="11.4228855"><ele>148.0</ele><time>2026-04-11T08:05:46.244Z</time></trkpt><trkpt lat="44.3921507" lon="11.4227955"><ele>148.0</ele><time>2026-04-11T08:05:47.245Z</time></trkpt><trkpt lat="44.3921205" lon="11.4227093"><ele>148.0</ele><time>2026-04-11T08:05:48.242Z</time></trkpt><trkpt lat="44.3920872" lon="11.4226262"><ele>150.16666666666669</ele><time>2026-04-11T08:05:49.244Z</time></trkpt><trkpt lat="44.392051" lon="11.422545"><ele>152.33333333333334</ele><time>2026-04-11T08:05:50.244Z</time></trkpt><trkpt lat="44.3920142" lon="11.4224442"><ele>154.5</ele><time>2026-04-11T08:05:51.242Z</time></trkpt><trkpt lat="44.3919827" lon="11.4223253"><ele>156.66666666666666</ele><time>2026-04-11T08:05:52.242Z</time></trkpt><trkpt lat="44.3919638" lon="11.4221982"><ele>158.83333333333331</ele><time>2026-04-11T08:05:53.242Z</time></trkpt><trkpt lat="44.3919562" lon="11.4220562"><ele>161.0</ele><time>2026-04-11T08:05:54.241Z</time></trkpt><trkpt lat="44.391959" lon="11.4219088"><ele>164.20000000000002</ele><time>2026-04-11T08:05:55.244Z</time></trkpt><trkpt lat="44.3919675" lon="11.4217653"><ele>167.4</ele><time>2026-04-11T08:05:56.242Z</time></trkpt><trkpt lat="44.3919757" lon="11.4216298"><ele>170.6</ele><time>2026-04-11T08:05:57.244Z</time></trkpt><trkpt lat="44.391979" lon="11.4214975"><ele>173.8</ele><time>2026-04-11T08:05:58.242Z</time></trkpt><trkpt lat="44.3919703" lon="11.421372"><ele>177.0</ele><time>2026-04-11T08:05:59.244Z</time></trkpt><trkpt lat="44.391951" lon="11.4212408"><ele>178.2</ele><time>2026-04-11T08:06:00.243Z</time></trkpt><trkpt lat="44.3919252" lon="11.4211065"><ele>179.39999999999998</ele><time>2026-04-11T08:06:01.243Z</time></trkpt><trkpt lat="44.3918932" lon="11.4209777"><ele>180.60000000000002</ele><time>2026-04-11T08:06:02.244Z</time></trkpt><trkpt lat="44.3918535" lon="11.420855"><ele>181.8</ele><time>2026-04-11T08:06:03.245Z</time></trkpt><trkpt lat="44.3918095" lon="11.4207533"><ele>183.0</ele><time>2026-04-11T08:06:04.247Z</time></trkpt><trkpt lat="44.3917537" lon="11.4206453"><ele>183.0</ele><time>2026-04-11T08:06:05.245Z</time></trkpt><trkpt lat="44.3917043" lon="11.4205347"><ele>183.0</ele><time>2026-04-11T08:06:06.242Z</time></trkpt><trkpt lat="44.3916617" lon="11.4204217"><ele>183.0</ele><time>2026-04-11T08:06:07.242Z</time></trkpt><trkpt lat="44.391627" lon="11.4203112"><ele>183.0</ele><time>2026-04-11T08:06:08.245Z</time></trkpt><trkpt lat="44.3916007" lon="11.4202073"><ele>183.0</ele><time>2026-04-11T08:06:09.244Z</time></trkpt><trkpt lat="44.3915787" lon="11.4201023"><ele>183.0</ele><time>2026-04-11T08:06:10.242Z</time></trkpt><trkpt lat="44.3915618" lon="11.4199992"><ele>183.33333333333334</ele><time>2026-04-11T08:06:11.243Z</time></trkpt><trkpt lat="44.391553" lon="11.4198913"><ele>183.66666666666666</ele><time>2026-04-11T08:06:12.243Z</time></trkpt><trkpt lat="44.3915485" lon="11.4197765"><ele>184.0</ele><time>2026-04-11T08:06:13.243Z</time></trkpt><trkpt lat="44.391543" lon="11.4196593"><ele>184.33333333333331</ele><time>2026-04-11T08:06:14.245Z</time></trkpt><trkpt lat="44.391537" lon="11.4195372"><ele>184.66666666666666</ele><time>2026-04-11T08:06:15.243Z</time></trkpt><trkpt lat="44.3915302" lon="11.4194067"><ele>185.0</ele><time>2026-04-11T08:06:16.243Z</time></trkpt><trkpt lat="44.39152" lon="11.4192738"><ele>185.83333333333331</ele><time>2026-04-11T08:06:17.244Z</time></trkpt><trkpt lat="44.3915022" lon="11.419143"><ele>186.66666666666666</ele><time>2026-04-11T08:06:18.24Z</time></trkpt><trkpt lat="44.3914812" lon="11.4190187"><ele>187.5</ele><time>2026-04-11T08:06:19.243Z</time></trkpt><trkpt lat="44.391462" lon="11.4188993"><ele>188.33333333333334</ele><time>2026-04-11T08:06:20.243Z</time></trkpt><trkpt lat="44.3914387" lon="11.4187895"><ele>189.16666666666669</ele><time>2026-04-11T08:06:21.243Z</time></trkpt><trkpt lat="44.3914042" lon="11.4186813"><ele>190.0</ele><time>2026-04-11T08:06:22.246Z</time></trkpt><trkpt lat="44.3913728" lon="11.4185838"><ele>190.0</ele><time>2026-04-11T08:06:23.245Z</time></trkpt><trkpt lat="44.391348" lon="11.4184768"><ele>190.0</ele><time>2026-04-11T08:06:24.246Z</time></trkpt><trkpt lat="44.3913253" lon="11.4183488"><ele>190.0</ele><time>2026-04-11T08:06:25.244Z</time></trkpt><trkpt lat="44.3913075" lon="11.4182352"><ele>190.0</ele><time>2026-04-11T08:06:26.245Z</time></trkpt><trkpt lat="44.3912872" lon="11.4181465"><ele>190.0</ele><time>2026-04-11T08:06:27.243Z</time></trkpt><trkpt lat="44.391256" lon="11.4180678"><ele>190.0</ele><time>2026-04-11T08:06:28.244Z</time></trkpt><trkpt lat="44.3911552" lon="11.4179552"><ele>194.14285714285714</ele><time>2026-04-11T08:06:30.245Z</time></trkpt><trkpt lat="44.3910845" lon="11.4179168"><ele>198.28571428571428</ele><time>2026-04-11T08:06:31.244Z</time></trkpt><trkpt lat="44.3910122" lon="11.4178983"><ele>202.42857142857144</ele><time>2026-04-11T08:06:32.246Z</time></trkpt><trkpt lat="44.3909482" lon="11.4178933"><ele>206.57142857142856</ele><time>2026-04-11T08:06:33.245Z</time></trkpt><trkpt lat="44.3908805" lon="11.4178967"><ele>210.7142857142857</ele><time>2026-04-11T08:06:34.244Z</time></trkpt><trkpt lat="44.3908067" lon="11.4179062"><ele>214.85714285714286</ele><time>2026-04-11T08:06:35.247Z</time></trkpt><trkpt lat="44.3907193" lon="11.4179223"><ele>219.0</ele><time>2026-04-11T08:06:36.247Z</time></trkpt><trkpt lat="44.3906445" lon="11.4179433"><ele>219.0</ele><time>2026-04-11T08:06:37.247Z</time></trkpt><trkpt lat="44.3905778" lon="11.4179635"><ele>219.0</ele><time>2026-04-11T08:06:38.248Z</time></trkpt><trkpt lat="44.3905102" lon="11.4179815"><ele>219.0</ele><time>2026-04-11T08:06:39.246Z</time></trkpt><trkpt lat="44.3904008" lon="11.4180003"><ele>219.0</ele><time>2026-04-11T08:06:41.239Z</time></trkpt><trkpt lat="44.3902893" lon="11.4179858"><ele>219.0</ele><time>2026-04-11T08:06:43.241Z</time></trkpt><trkpt lat="44.3902237" lon="11.4179792"><ele>219.0</ele><time>2026-04-11T08:06:44.244Z</time></trkpt><trkpt lat="44.3901025" lon="11.4179978"><ele>219.79999999999998</ele><time>2026-04-11T08:06:46.243Z</time></trkpt><trkpt lat="44.389994" lon="11.4179673"><ele>220.59999999999997</ele><time>2026-04-11T08:06:48.243Z</time></trkpt><trkpt lat="44.3898937" lon="11.4178588"><ele>221.4</ele><time>2026-04-11T08:06:50.244Z</time></trkpt><trkpt lat="44.3898422" lon="11.4178028"><ele>222.2</ele><time>2026-04-11T08:06:51.248Z</time></trkpt><trkpt lat="44.3897165" lon="11.4177392"><ele>223.0</ele><time>2026-04-11T08:06:53.246Z</time></trkpt><trkpt lat="44.3896347" lon="11.4177245"><ele>222.99999999999997</ele><time>2026-04-11T08:06:54.244Z</time></trkpt><trkpt lat="44.3895545" lon="11.4177203"><ele>223.0</ele><time>2026-04-11T08:06:55.245Z</time></trkpt><trkpt lat="44.3894908" lon="11.4177253"><ele>223.0</ele><time>2026-04-11T08:06:56.245Z</time></trkpt><trkpt lat="44.3894058" lon="11.4177453"><ele>223.0</ele><time>2026-04-11T08:06:58.246Z</time></trkpt><trkpt lat="44.3893427" lon="11.4177667"><ele>222.99999999999997</ele><time>2026-04-11T08:07:49.247Z</time></trkpt><trkpt lat="44.3893168" lon="11.4176398"><ele>223.0</ele><time>2026-04-11T08:07:59.246Z</time></trkpt><trkpt lat="44.3893338" lon="11.41749"><ele>223.0</ele><time>2026-04-11T08:08:01.245Z</time></trkpt><trkpt lat="44.3893417" lon="11.4174015"><ele>223.0</ele><time>2026-04-11T08:08:02.248Z</time></trkpt><trkpt lat="44.3893405" lon="11.4173062"><ele>223.0</ele><time>2026-04-11T08:08:03.245Z</time></trkpt><trkpt lat="44.3893433" lon="11.4172105"><ele>223.0</ele><time>2026-04-11T08:08:04.247Z</time></trkpt><trkpt lat="44.3893518" lon="11.4171095"><ele>223.0</ele><time>2026-04-11T08:08:05.246Z</time></trkpt><trkpt lat="44.3893668" lon="11.4170073"><ele>223.0</ele><time>2026-04-11T08:08:06.247Z</time></trkpt><trkpt lat="44.3893842" lon="11.4169058"><ele>223.0</ele><time>2026-04-11T08:08:07.247Z</time></trkpt><trkpt lat="44.3894015" lon="11.416807"><ele>222.57142857142856</ele><time>2026-04-11T08:08:08.247Z</time></trkpt><trkpt lat="44.3894215" lon="11.4167178"><ele>222.14285714285714</ele><time>2026-04-11T08:08:09.246Z</time></trkpt><trkpt lat="44.3894407" lon="11.4166233"><ele>221.71428571428572</ele><time>2026-04-11T08:08:10.246Z</time></trkpt><trkpt lat="44.3894638" lon="11.4165242"><ele>221.28571428571428</ele><time>2026-04-11T08:08:11.246Z</time></trkpt><trkpt lat="44.3894882" lon="11.416428"><ele>220.85714285714286</ele><time>2026-04-11T08:08:12.246Z</time></trkpt><trkpt lat="44.3895135" lon="11.416335"><ele>220.42857142857142</ele><time>2026-04-11T08:08:13.246Z</time></trkpt><trkpt lat="44.3895397" lon="11.4162503"><ele>220.0</ele><time>2026-04-11T08:08:14.245Z</time></trkpt><trkpt lat="44.3896107" lon="11.4161255"><ele>219.99999999999997</ele><time>2026-04-11T08:08:16.244Z</time></trkpt><trkpt lat="44.3896575" lon="11.4160602"><ele>220.0</ele><time>2026-04-11T08:08:17.245Z</time></trkpt><trkpt lat="44.3897082" lon="11.4159937"><ele>220.0</ele><time>2026-04-11T08:08:18.244Z</time></trkpt><trkpt lat="44.3897583" lon="11.4159305"><ele>220.0</ele><time>2026-04-11T08:08:19.244Z</time></trkpt><trkpt lat="44.3898087" lon="11.4158665"><ele>220.0</ele><time>2026-04-11T08:08:20.243Z</time></trkpt><trkpt lat="44.3898595" lon="11.4158025"><ele>219.99999999999997</ele><time>2026-04-11T08:08:21.245Z</time></trkpt><trkpt lat="44.3899048" lon="11.415739"><ele>220.0</ele><time>2026-04-11T08:08:22.247Z</time></trkpt><trkpt lat="44.3899775" lon="11.4156055"><ele>223.66666666666666</ele><time>2026-04-11T08:08:24.245Z</time></trkpt><trkpt lat="44.390013" lon="11.4155262"><ele>227.33333333333331</ele><time>2026-04-11T08:08:25.247Z</time></trkpt><trkpt lat="44.3900457" lon="11.4154502"><ele>231.0</ele><time>2026-04-11T08:08:26.245Z</time></trkpt><trkpt lat="44.3901038" lon="11.4152882"><ele>234.66666666666669</ele><time>2026-04-11T08:08:28.246Z</time></trkpt><trkpt lat="44.3901288" lon="11.4152027"><ele>238.33333333333334</ele><time>2026-04-11T08:08:29.245Z</time></trkpt><trkpt lat="44.3901533" lon="11.415117"><ele>242.0</ele><time>2026-04-11T08:08:30.247Z</time></trkpt><trkpt lat="44.3901772" lon="11.4149545"><ele>243.39999999999998</ele><time>2026-04-11T08:08:32.245Z</time></trkpt><trkpt lat="44.3901655" lon="11.414791"><ele>244.79999999999998</ele><time>2026-04-11T08:08:34.245Z</time></trkpt><trkpt lat="44.3901653" lon="11.4146618"><ele>246.2</ele><time>2026-04-11T08:08:36.246Z</time></trkpt><trkpt lat="44.3901917" lon="11.414574"><ele>247.6</ele><time>2026-04-11T08:08:37.247Z</time></trkpt><trkpt lat="44.3902178" lon="11.414442"><ele>249.0</ele><time>2026-04-11T08:08:38.248Z</time></trkpt><trkpt lat="44.3902375" lon="11.4143047"><ele>250.33333333333334</ele><time>2026-04-11T08:08:39.247Z</time></trkpt><trkpt lat="44.390254" lon="11.4141882"><ele>251.66666666666669</ele><time>2026-04-11T08:08:40.245Z</time></trkpt><trkpt lat="44.390265" lon="11.414095"><ele>253.0</ele><time>2026-04-11T08:08:41.25Z</time></trkpt><trkpt lat="44.3902723" lon="11.413992"><ele>254.33333333333334</ele><time>2026-04-11T08:08:43.245Z</time></trkpt><trkpt lat="44.390241" lon="11.4138697"><ele>255.66666666666669</ele><time>2026-04-11T08:10:19.248Z</time></trkpt><trkpt lat="44.390161" lon="11.4137605"><ele>257.0</ele><time>2026-04-11T08:10:21.247Z</time></trkpt><trkpt lat="44.3901112" lon="11.413699"><ele>257.4</ele><time>2026-04-11T08:10:22.246Z</time></trkpt><trkpt lat="44.3900495" lon="11.4136285"><ele>257.79999999999995</ele><time>2026-04-11T08:10:23.245Z</time></trkpt><trkpt lat="44.3899715" lon="11.4135378"><ele>258.2</ele><time>2026-04-11T08:10:24.247Z</time></trkpt><trkpt lat="44.3898927" lon="11.4134415"><ele>258.59999999999997</ele><time>2026-04-11T08:10:25.249Z</time></trkpt><trkpt lat="44.3898113" lon="11.4133458"><ele>259.0</ele><time>2026-04-11T08:10:26.247Z</time></trkpt><trkpt lat="44.389729" lon="11.4132497"><ele>256.0</ele><time>2026-04-11T08:10:27.246Z</time></trkpt><trkpt lat="44.3896465" lon="11.4131568"><ele>253.0</ele><time>2026-04-11T08:10:28.247Z</time></trkpt><trkpt lat="44.3895633" lon="11.4130652"><ele>250.0</ele><time>2026-04-11T08:10:29.248Z</time></trkpt><trkpt lat="44.3894622" lon="11.4129535"><ele>247.0</ele><time>2026-04-11T08:10:30.246Z</time></trkpt><trkpt lat="44.3893533" lon="11.4128402"><ele>247.0</ele><time>2026-04-11T08:10:31.245Z</time></trkpt><trkpt lat="44.3892423" lon="11.4127357"><ele>247.0</ele><time>2026-04-11T08:10:32.247Z</time></trkpt><trkpt lat="44.3891285" lon="11.4126468"><ele>247.0</ele><time>2026-04-11T08:10:33.248Z</time></trkpt><trkpt lat="44.3890108" lon="11.4125677"><ele>247.0</ele><time>2026-04-11T08:10:34.248Z</time></trkpt><trkpt lat="44.388894" lon="11.4124932"><ele>246.5</ele><time>2026-04-11T08:10:35.248Z</time></trkpt><trkpt lat="44.3887805" lon="11.4124267"><ele>246.0</ele><time>2026-04-11T08:10:36.249Z</time></trkpt><trkpt lat="44.3886717" lon="11.4123768"><ele>245.5</ele><time>2026-04-11T08:10:37.247Z</time></trkpt><trkpt lat="44.3885602" lon="11.4123443"><ele>245.0</ele><time>2026-04-11T08:10:38.248Z</time></trkpt><trkpt lat="44.3884498" lon="11.4123318"><ele>245.0</ele><time>2026-04-11T08:10:39.249Z</time></trkpt><trkpt lat="44.3883373" lon="11.4123298"><ele>245.0</ele><time>2026-04-11T08:10:40.246Z</time></trkpt><trkpt lat="44.388226" lon="11.4123328"><ele>245.0</ele><time>2026-04-11T08:10:41.248Z</time></trkpt><trkpt lat="44.3881173" lon="11.4123347"><ele>245.0</ele><time>2026-04-11T08:10:42.246Z</time></trkpt><trkpt lat="44.388018" lon="11.4123343"><ele>245.0</ele><time>2026-04-11T08:10:43.246Z</time></trkpt><trkpt lat="44.3879258" lon="11.4123302"><ele>246.0</ele><time>2026-04-11T08:10:44.246Z</time></trkpt><trkpt lat="44.3878333" lon="11.4123155"><ele>247.0</ele><time>2026-04-11T08:10:45.245Z</time></trkpt><trkpt lat="44.3877383" lon="11.4122933"><ele>248.0</ele><time>2026-04-11T08:10:46.244Z</time></trkpt><trkpt lat="44.387641" lon="11.412274"><ele>249.0</ele><time>2026-04-11T08:10:47.244Z</time></trkpt><trkpt lat="44.3875338" lon="11.4122662"><ele>250.0</ele><time>2026-04-11T08:10:48.244Z</time></trkpt><trkpt lat="44.387434" lon="11.4122662"><ele>250.0</ele><time>2026-04-11T08:10:49.247Z</time></trkpt><trkpt lat="44.387326" lon="11.4122602"><ele>250.0</ele><time>2026-04-11T08:10:50.247Z</time></trkpt><trkpt lat="44.387216" lon="11.4122427"><ele>250.0</ele><time>2026-04-11T08:10:51.249Z</time></trkpt><trkpt lat="44.3871077" lon="11.4122127"><ele>250.0</ele><time>2026-04-11T08:10:52.247Z</time></trkpt><trkpt lat="44.387002" lon="11.4121787"><ele>250.0</ele><time>2026-04-11T08:10:53.25Z</time></trkpt><trkpt lat="44.3868973" lon="11.4121508"><ele>251.4</ele><time>2026-04-11T08:10:54.249Z</time></trkpt><trkpt lat="44.3868" lon="11.4121478"><ele>252.8</ele><time>2026-04-11T08:10:55.249Z</time></trkpt><trkpt lat="44.386697" lon="11.4121787"><ele>254.2</ele><time>2026-04-11T08:10:56.248Z</time></trkpt><trkpt lat="44.386599" lon="11.4122225"><ele>255.6</ele><time>2026-04-11T08:10:57.251Z</time></trkpt><trkpt lat="44.3865182" lon="11.4122575"><ele>257.0</ele><time>2026-04-11T08:10:58.247Z</time></trkpt><trkpt lat="44.3864428" lon="11.4122875"><ele>256.83333333333337</ele><time>2026-04-11T08:10:59.248Z</time></trkpt><trkpt lat="44.3863673" lon="11.4123147"><ele>256.6666666666667</ele><time>2026-04-11T08:11:00.245Z</time></trkpt><trkpt lat="44.3862978" lon="11.4123353"><ele>256.5</ele><time>2026-04-11T08:11:01.245Z</time></trkpt><trkpt lat="44.3862285" lon="11.4123473"><ele>256.3333333333333</ele><time>2026-04-11T08:11:02.247Z</time></trkpt><trkpt lat="44.3861617" lon="11.4123472"><ele>256.16666666666663</ele><time>2026-04-11T08:11:03.246Z</time></trkpt><trkpt lat="44.3860992" lon="11.4123345"><ele>256.0</ele><time>2026-04-11T08:11:04.246Z</time></trkpt><trkpt lat="44.3859797" lon="11.412299"><ele>256.0</ele><time>2026-04-11T08:11:06.247Z</time></trkpt><trkpt lat="44.3858585" lon="11.4122655"><ele>256.0</ele><time>2026-04-11T08:11:08.249Z</time></trkpt><trkpt lat="44.3857423" lon="11.4122312"><ele>256.0</ele><time>2026-04-11T08:11:10.245Z</time></trkpt><trkpt lat="44.3856143" lon="11.4121988"><ele>256.0</ele><time>2026-04-11T08:11:12.245Z</time></trkpt><trkpt lat="44.3855395" lon="11.4121753"><ele>256.0</ele><time>2026-04-11T08:11:13.246Z</time></trkpt><trkpt lat="44.3854518" lon="11.4121438"><ele>255.83333333333331</ele><time>2026-04-11T08:11:14.248Z</time></trkpt><trkpt lat="44.385367" lon="11.4121073"><ele>255.66666666666666</ele><time>2026-04-11T08:11:15.246Z</time></trkpt><trkpt lat="44.3852887" lon="11.4120785"><ele>255.5</ele><time>2026-04-11T08:11:16.247Z</time></trkpt><trkpt lat="44.3852032" lon="11.4120693"><ele>255.33333333333331</ele><time>2026-04-11T08:11:17.247Z</time></trkpt><trkpt lat="44.38512" lon="11.4120695"><ele>255.16666666666666</ele><time>2026-04-11T08:11:18.247Z</time></trkpt><trkpt lat="44.3850427" lon="11.412069"><ele>255.0</ele><time>2026-04-11T08:11:19.246Z</time></trkpt><trkpt lat="44.38496" lon="11.4120728"><ele>255.0</ele><time>2026-04-11T08:11:20.247Z</time></trkpt><trkpt lat="44.3848717" lon="11.4120767"><ele>255.0</ele><time>2026-04-11T08:11:21.248Z</time></trkpt><trkpt lat="44.3847805" lon="11.4120847"><ele>255.0</ele><time>2026-04-11T08:11:22.245Z</time></trkpt><trkpt lat="44.3846933" lon="11.412107"><ele>255.0</ele><time>2026-04-11T08:11:23.248Z</time></trkpt><trkpt lat="44.3846038" lon="11.4121523"><ele>255.0</ele><time>2026-04-11T08:11:24.247Z</time></trkpt><trkpt lat="44.3845123" lon="11.412214"><ele>255.25</ele><time>2026-04-11T08:11:25.246Z</time></trkpt><trkpt lat="44.3844107" lon="11.4122878"><ele>255.5</ele><time>2026-04-11T08:11:26.247Z</time></trkpt><trkpt lat="44.3843022" lon="11.4123572"><ele>255.75</ele><time>2026-04-11T08:11:27.247Z</time></trkpt><trkpt lat="44.3841983" lon="11.4124095"><ele>256.0</ele><time>2026-04-11T08:11:28.246Z</time></trkpt><trkpt lat="44.3840907" lon="11.4124545"><ele>256.0</ele><time>2026-04-11T08:11:29.246Z</time></trkpt><trkpt lat="44.3839853" lon="11.4124915"><ele>256.0</ele><time>2026-04-11T08:11:30.248Z</time></trkpt><trkpt lat="44.383883" lon="11.4125268"><ele>256.0</ele><time>2026-04-11T08:11:31.247Z</time></trkpt><trkpt lat="44.3837817" lon="11.4125612"><ele>256.0</ele><time>2026-04-11T08:11:32.247Z</time></trkpt><trkpt lat="44.3836797" lon="11.4125952"><ele>256.0</ele><time>2026-04-11T08:11:33.245Z</time></trkpt><trkpt lat="44.383575" lon="11.4126293"><ele>256.2</ele><time>2026-04-11T08:11:34.243Z</time></trkpt><trkpt lat="44.3834707" lon="11.4126693"><ele>256.40000000000003</ele><time>2026-04-11T08:11:35.244Z</time></trkpt><trkpt lat="44.3833675" lon="11.4127227"><ele>256.6</ele><time>2026-04-11T08:11:36.244Z</time></trkpt><trkpt lat="44.383273" lon="11.4127802"><ele>256.8</ele><time>2026-04-11T08:11:37.244Z</time></trkpt><trkpt lat="44.383188" lon="11.4128413"><ele>257.0</ele><time>2026-04-11T08:11:38.246Z</time></trkpt><trkpt lat="44.3831038" lon="11.412915"><ele>256.0</ele><time>2026-04-11T08:11:39.249Z</time></trkpt><trkpt lat="44.3830153" lon="11.413006"><ele>255.0</ele><time>2026-04-11T08:11:40.245Z</time></trkpt><trkpt lat="44.3829157" lon="11.4131158"><ele>254.0</ele><time>2026-04-11T08:11:41.248Z</time></trkpt><trkpt lat="44.382821" lon="11.413211"><ele>253.0</ele><time>2026-04-11T08:11:42.246Z</time></trkpt><trkpt lat="44.3827218" lon="11.413295"><ele>255.5</ele><time>2026-04-11T08:11:43.247Z</time></trkpt><trkpt lat="44.3826162" lon="11.4133653"><ele>258.0</ele><time>2026-04-11T08:11:44.248Z</time></trkpt><trkpt lat="44.3825025" lon="11.4134177"><ele>260.5</ele><time>2026-04-11T08:11:45.248Z</time></trkpt><trkpt lat="44.3823807" lon="11.413455"><ele>263.0</ele><time>2026-04-11T08:11:46.247Z</time></trkpt><trkpt lat="44.3822578" lon="11.4134725"><ele>265.5</ele><time>2026-04-11T08:11:47.248Z</time></trkpt><trkpt lat="44.3821205" lon="11.4134745"><ele>268.0</ele><time>2026-04-11T08:11:48.247Z</time></trkpt><trkpt lat="44.3819802" lon="11.4134672"><ele>270.5</ele><time>2026-04-11T08:11:49.249Z</time></trkpt><trkpt lat="44.3818493" lon="11.4134572"><ele>273.0</ele><time>2026-04-11T08:11:50.248Z</time></trkpt><trkpt lat="44.3817253" lon="11.4134537"><ele>273.0</ele><time>2026-04-11T08:11:51.248Z</time></trkpt><trkpt lat="44.38161" lon="11.4134633"><ele>273.0</ele><time>2026-04-11T08:11:52.247Z</time></trkpt><trkpt lat="44.3815038" lon="11.4134897"><ele>273.0</ele><time>2026-04-11T08:11:53.252Z</time></trkpt><trkpt lat="44.3813878" lon="11.4135267"><ele>273.0</ele><time>2026-04-11T08:11:54.249Z</time></trkpt><trkpt lat="44.3812737" lon="11.413571"><ele>274.2</ele><time>2026-04-11T08:11:55.248Z</time></trkpt><trkpt lat="44.3811692" lon="11.4136217"><ele>275.4</ele><time>2026-04-11T08:11:56.248Z</time></trkpt><trkpt lat="44.38108" lon="11.4136687"><ele>276.59999999999997</ele><time>2026-04-11T08:11:57.247Z</time></trkpt><trkpt lat="44.3810002" lon="11.4137207"><ele>277.8</ele><time>2026-04-11T08:11:58.244Z</time></trkpt><trkpt lat="44.380935" lon="11.4137675"><ele>279.0</ele><time>2026-04-11T08:11:59.246Z</time></trkpt><trkpt lat="44.3808435" lon="11.4138352"><ele>279.0</ele><time>2026-04-11T08:12:01.244Z</time></trkpt><trkpt lat="44.3807645" lon="11.4138435"><ele>279.0</ele><time>2026-04-11T08:12:04.246Z</time></trkpt><trkpt lat="44.3806933" lon="11.413758"><ele>279.0</ele><time>2026-04-11T08:12:24.244Z</time></trkpt><trkpt lat="44.380613" lon="11.4135838"><ele>279.0</ele><time>2026-04-11T08:12:26.243Z</time></trkpt><trkpt lat="44.3805618" lon="11.4135007"><ele>279.0</ele><time>2026-04-11T08:12:27.247Z</time></trkpt><trkpt lat="44.3805068" lon="11.4134285"><ele>279.8333333333333</ele><time>2026-04-11T08:12:28.247Z</time></trkpt><trkpt lat="44.3804528" lon="11.4133598"><ele>280.6666666666667</ele><time>2026-04-11T08:12:29.249Z</time></trkpt><trkpt lat="44.3803962" lon="11.4132873"><ele>281.5</ele><time>2026-04-11T08:12:30.244Z</time></trkpt><trkpt lat="44.3803423" lon="11.413207"><ele>282.33333333333337</ele><time>2026-04-11T08:12:31.246Z</time></trkpt><trkpt lat="44.3802982" lon="11.413115"><ele>283.1666666666667</ele><time>2026-04-11T08:12:32.247Z</time></trkpt><trkpt lat="44.380266" lon="11.4130092"><ele>284.0</ele><time>2026-04-11T08:12:33.247Z</time></trkpt><trkpt lat="44.3802373" lon="11.412891"><ele>284.0</ele><time>2026-04-11T08:12:34.244Z</time></trkpt><trkpt lat="44.3802028" lon="11.4127703"><ele>284.0</ele><time>2026-04-11T08:12:35.249Z</time></trkpt><trkpt lat="44.3801643" lon="11.4126518"><ele>284.0</ele><time>2026-04-11T08:12:36.244Z</time></trkpt><trkpt lat="44.3801218" lon="11.4125327"><ele>284.0</ele><time>2026-04-11T08:12:37.244Z</time></trkpt><trkpt lat="44.3800787" lon="11.4124123"><ele>284.0</ele><time>2026-04-11T08:12:38.246Z</time></trkpt><trkpt lat="44.3800393" lon="11.4122908"><ele>284.0</ele><time>2026-04-11T08:12:39.249Z</time></trkpt><trkpt lat="44.3800048" lon="11.4121803"><ele>284.0</ele><time>2026-04-11T08:12:40.246Z</time></trkpt><trkpt lat="44.3799672" lon="11.4120853"><ele>284.0</ele><time>2026-04-11T08:12:41.248Z</time></trkpt><trkpt lat="44.3799322" lon="11.4120097"><ele>284.0</ele><time>2026-04-11T08:12:42.247Z</time></trkpt><trkpt lat="44.3799053" lon="11.4118537"><ele>284.0</ele><time>2026-04-11T08:12:44.245Z</time></trkpt><trkpt lat="44.3799182" lon="11.4116683"><ele>281.33333333333337</ele><time>2026-04-11T08:12:46.247Z</time></trkpt><trkpt lat="44.379928" lon="11.4115483"><ele>278.6666666666667</ele><time>2026-04-11T08:12:47.245Z</time></trkpt><trkpt lat="44.3799435" lon="11.4114357"><ele>276.0</ele><time>2026-04-11T08:12:48.242Z</time></trkpt><trkpt lat="44.3799588" lon="11.4113233"><ele>273.3333333333333</ele><time>2026-04-11T08:12:49.244Z</time></trkpt><trkpt lat="44.3799743" lon="11.4112193"><ele>270.66666666666663</ele><time>2026-04-11T08:12:50.244Z</time></trkpt><trkpt lat="44.3799897" lon="11.4111203"><ele>268.0</ele><time>2026-04-11T08:12:51.244Z</time></trkpt><trkpt lat="44.3800053" lon="11.4110262"><ele>267.16666666666663</ele><time>2026-04-11T08:12:52.245Z</time></trkpt><trkpt lat="44.3800233" lon="11.410922"><ele>266.3333333333333</ele><time>2026-04-11T08:12:53.246Z</time></trkpt><trkpt lat="44.380041" lon="11.4108118"><ele>265.5</ele><time>2026-04-11T08:12:54.245Z</time></trkpt><trkpt lat="44.3800602" lon="11.4107"><ele>264.6666666666667</ele><time>2026-04-11T08:12:55.248Z</time></trkpt><trkpt lat="44.3800807" lon="11.4105788"><ele>263.83333333333337</ele><time>2026-04-11T08:12:56.246Z</time></trkpt><trkpt lat="44.3801035" lon="11.4104622"><ele>263.0</ele><time>2026-04-11T08:12:57.246Z</time></trkpt><trkpt lat="44.3801337" lon="11.4103557"><ele>260.1666666666667</ele><time>2026-04-11T08:12:58.247Z</time></trkpt><trkpt lat="44.3801742" lon="11.4102573"><ele>257.33333333333337</ele><time>2026-04-11T08:12:59.247Z</time></trkpt><trkpt lat="44.3802198" lon="11.4101622"><ele>254.5</ele><time>2026-04-11T08:13:00.247Z</time></trkpt><trkpt lat="44.380265" lon="11.4100623"><ele>251.66666666666669</ele><time>2026-04-11T08:13:01.246Z</time></trkpt><trkpt lat="44.3803085" lon="11.4099538"><ele>248.83333333333334</ele><time>2026-04-11T08:13:02.247Z</time></trkpt><trkpt lat="44.3803552" lon="11.4098435"><ele>246.0</ele><time>2026-04-11T08:13:03.246Z</time></trkpt><trkpt lat="44.3804073" lon="11.4097347"><ele>245.5</ele><time>2026-04-11T08:13:04.246Z</time></trkpt><trkpt lat="44.3804543" lon="11.4096325"><ele>245.0</ele><time>2026-04-11T08:13:05.249Z</time></trkpt><trkpt lat="44.3804878" lon="11.4095315"><ele>244.5</ele><time>2026-04-11T08:13:06.246Z</time></trkpt><trkpt lat="44.3805098" lon="11.4094237"><ele>244.0</ele><time>2026-04-11T08:13:07.246Z</time></trkpt><trkpt lat="44.380527" lon="11.4092967"><ele>243.5</ele><time>2026-04-11T08:13:08.245Z</time></trkpt><trkpt lat="44.3805457" lon="11.4091608"><ele>243.0</ele><time>2026-04-11T08:13:09.248Z</time></trkpt><trkpt lat="44.3805658" lon="11.409024"><ele>243.0</ele><time>2026-04-11T08:13:10.245Z</time></trkpt><trkpt lat="44.3805857" lon="11.4088855"><ele>243.0</ele><time>2026-04-11T08:13:11.246Z</time></trkpt><trkpt lat="44.3806045" lon="11.4087452"><ele>243.0</ele><time>2026-04-11T08:13:12.242Z</time></trkpt><trkpt lat="44.3806242" lon="11.4085932"><ele>243.0</ele><time>2026-04-11T08:13:13.244Z</time></trkpt><trkpt lat="44.3806433" lon="11.408427"><ele>243.0</ele><time>2026-04-11T08:13:14.243Z</time></trkpt><trkpt lat="44.3806607" lon="11.4082653"><ele>242.4</ele><time>2026-04-11T08:13:15.243Z</time></trkpt><trkpt lat="44.3806762" lon="11.4081065"><ele>241.8</ele><time>2026-04-11T08:13:16.244Z</time></trkpt><trkpt lat="44.3806887" lon="11.4079502"><ele>241.2</ele><time>2026-04-11T08:13:17.248Z</time></trkpt><trkpt lat="44.3807022" lon="11.4078005"><ele>240.6</ele><time>2026-04-11T08:13:18.245Z</time></trkpt><trkpt lat="44.3807148" lon="11.4076577"><ele>240.0</ele><time>2026-04-11T08:13:19.244Z</time></trkpt><trkpt lat="44.380726" lon="11.4075163"><ele>238.33333333333334</ele><time>2026-04-11T08:13:20.247Z</time></trkpt><trkpt lat="44.3807375" lon="11.4073817"><ele>236.66666666666669</ele><time>2026-04-11T08:13:21.245Z</time></trkpt><trkpt lat="44.3807503" lon="11.4072523"><ele>235.0</ele><time>2026-04-11T08:13:22.244Z</time></trkpt><trkpt lat="44.3807622" lon="11.4071392"><ele>233.33333333333334</ele><time>2026-04-11T08:13:23.246Z</time></trkpt><trkpt lat="44.380772" lon="11.4070433"><ele>231.66666666666669</ele><time>2026-04-11T08:13:24.248Z</time></trkpt><trkpt lat="44.3807813" lon="11.4069477"><ele>230.0</ele><time>2026-04-11T08:13:25.247Z</time></trkpt><trkpt lat="44.3807857" lon="11.4068368"><ele>228.16666666666669</ele><time>2026-04-11T08:13:26.247Z</time></trkpt><trkpt lat="44.3807875" lon="11.4067353"><ele>226.33333333333334</ele><time>2026-04-11T08:13:27.247Z</time></trkpt><trkpt lat="44.3808075" lon="11.4065998"><ele>224.5</ele><time>2026-04-11T08:13:29.248Z</time></trkpt><trkpt lat="44.3808655" lon="11.4065398"><ele>222.66666666666669</ele><time>2026-04-11T08:13:31.245Z</time></trkpt><trkpt lat="44.3809785" lon="11.4065315"><ele>220.83333333333334</ele><time>2026-04-11T08:13:33.243Z</time></trkpt><trkpt lat="44.3810603" lon="11.40654"><ele>219.0</ele><time>2026-04-11T08:13:34.244Z</time></trkpt><trkpt lat="44.3811405" lon="11.4065543"><ele>219.0</ele><time>2026-04-11T08:13:35.244Z</time></trkpt><trkpt lat="44.3812343" lon="11.4065887"><ele>219.0</ele><time>2026-04-11T08:13:36.243Z</time></trkpt><trkpt lat="44.381357" lon="11.406653"><ele>219.0</ele><time>2026-04-11T08:13:37.242Z</time></trkpt><trkpt lat="44.3814748" lon="11.4067275"><ele>219.0</ele><time>2026-04-11T08:13:38.244Z</time></trkpt><trkpt lat="44.381575" lon="11.4067935"><ele>217.79999999999998</ele><time>2026-04-11T08:13:39.243Z</time></trkpt><trkpt lat="44.381666" lon="11.4068563"><ele>216.59999999999997</ele><time>2026-04-11T08:13:40.245Z</time></trkpt><trkpt lat="44.3817473" lon="11.4069262"><ele>215.4</ele><time>2026-04-11T08:13:41.248Z</time></trkpt><trkpt lat="44.3818213" lon="11.4069995"><ele>214.2</ele><time>2026-04-11T08:13:42.247Z</time></trkpt><trkpt lat="44.3818882" lon="11.4070782"><ele>213.0</ele><time>2026-04-11T08:13:43.244Z</time></trkpt><trkpt lat="44.3819522" lon="11.4071563"><ele>214.7142857142857</ele><time>2026-04-11T08:13:44.247Z</time></trkpt><trkpt lat="44.3820085" lon="11.4072285"><ele>216.42857142857144</ele><time>2026-04-11T08:13:45.245Z</time></trkpt><trkpt lat="44.3820587" lon="11.4072917"><ele>218.14285714285717</ele><time>2026-04-11T08:13:46.245Z</time></trkpt><trkpt lat="44.3820978" lon="11.4073617"><ele>219.85714285714286</ele><time>2026-04-11T08:13:47.248Z</time></trkpt><trkpt lat="44.3821368" lon="11.4074523"><ele>221.57142857142858</ele><time>2026-04-11T08:13:48.245Z</time></trkpt><trkpt lat="44.3821698" lon="11.4075565"><ele>223.2857142857143</ele><time>2026-04-11T08:13:49.246Z</time></trkpt><trkpt lat="44.3821958" lon="11.4076682"><ele>225.00000000000003</ele><time>2026-04-11T08:13:50.248Z</time></trkpt><trkpt lat="44.3822163" lon="11.4077752"><ele>220.66666666666666</ele><time>2026-04-11T08:13:51.248Z</time></trkpt><trkpt lat="44.3822365" lon="11.4078765"><ele>216.33333333333331</ele><time>2026-04-11T08:13:52.247Z</time></trkpt><trkpt lat="44.382255" lon="11.4079623"><ele>212.0</ele><time>2026-04-11T08:13:53.249Z</time></trkpt><trkpt lat="44.3822855" lon="11.4080775"><ele>207.66666666666666</ele><time>2026-04-11T08:13:55.246Z</time></trkpt><trkpt lat="44.3823802" lon="11.408071"><ele>203.33333333333331</ele><time>2026-04-11T08:13:58.247Z</time></trkpt><trkpt lat="44.3824765" lon="11.4079675"><ele>199.0</ele><time>2026-04-11T08:14:00.245Z</time></trkpt><trkpt lat="44.3825257" lon="11.407884"><ele>198.6</ele><time>2026-04-11T08:14:01.246Z</time></trkpt><trkpt lat="44.3825807" lon="11.4077962"><ele>198.2</ele><time>2026-04-11T08:14:02.242Z</time></trkpt><trkpt lat="44.3826397" lon="11.4077013"><ele>197.79999999999998</ele><time>2026-04-11T08:14:03.243Z</time></trkpt><trkpt lat="44.3826987" lon="11.4075942"><ele>197.39999999999998</ele><time>2026-04-11T08:14:04.245Z</time></trkpt><trkpt lat="44.3827583" lon="11.407481"><ele>197.0</ele><time>2026-04-11T08:14:05.248Z</time></trkpt><trkpt lat="44.3828185" lon="11.4073678"><ele>197.0</ele><time>2026-04-11T08:14:06.247Z</time></trkpt><trkpt lat="44.3828778" lon="11.40725"><ele>197.0</ele><time>2026-04-11T08:14:07.245Z</time></trkpt><trkpt lat="44.3829338" lon="11.4071292"><ele>197.0</ele><time>2026-04-11T08:14:08.246Z</time></trkpt><trkpt lat="44.3829857" lon="11.4070088"><ele>197.0</ele><time>2026-04-11T08:14:09.246Z</time></trkpt><trkpt lat="44.3830378" lon="11.4068855"><ele>197.0</ele><time>2026-04-11T08:14:10.247Z</time></trkpt><trkpt lat="44.3830887" lon="11.4067658"><ele>190.2</ele><time>2026-04-11T08:14:11.247Z</time></trkpt><trkpt lat="44.383139" lon="11.4066522"><ele>183.39999999999998</ele><time>2026-04-11T08:14:12.247Z</time></trkpt><trkpt lat="44.3831888" lon="11.4065427"><ele>176.60000000000002</ele><time>2026-04-11T08:14:13.245Z</time></trkpt><trkpt lat="44.3832418" lon="11.4064378"><ele>169.8</ele><time>2026-04-11T08:14:14.246Z</time></trkpt><trkpt lat="44.3833037" lon="11.4063405"><ele>163.0</ele><time>2026-04-11T08:14:15.246Z</time></trkpt><trkpt lat="44.3833692" lon="11.4062442"><ele>162.16666666666669</ele><time>2026-04-11T08:14:16.247Z</time></trkpt><trkpt lat="44.3834308" lon="11.4061483"><ele>161.33333333333334</ele><time>2026-04-11T08:14:17.247Z</time></trkpt><trkpt lat="44.383491" lon="11.4060577"><ele>160.5</ele><time>2026-04-11T08:14:18.246Z</time></trkpt><trkpt lat="44.3835522" lon="11.4059665"><ele>159.66666666666666</ele><time>2026-04-11T08:14:19.245Z</time></trkpt><trkpt lat="44.3836098" lon="11.4058733"><ele>158.83333333333331</ele><time>2026-04-11T08:14:20.25Z</time></trkpt><trkpt lat="44.3836705" lon="11.4057785"><ele>158.0</ele><time>2026-04-11T08:14:21.248Z</time></trkpt><trkpt lat="44.3837303" lon="11.4056832"><ele>158.0</ele><time>2026-04-11T08:14:22.247Z</time></trkpt><trkpt lat="44.3837935" lon="11.4055863"><ele>158.0</ele><time>2026-04-11T08:14:23.247Z</time></trkpt><trkpt lat="44.3838555" lon="11.4054952"><ele>158.0</ele><time>2026-04-11T08:14:24.246Z</time></trkpt><trkpt lat="44.383918" lon="11.405402"><ele>158.0</ele><time>2026-04-11T08:14:25.246Z</time></trkpt><trkpt lat="44.3839727" lon="11.4053058"><ele>158.0</ele><time>2026-04-11T08:14:26.244Z</time></trkpt><trkpt lat="44.3840213" lon="11.4052082"><ele>158.0</ele><time>2026-04-11T08:14:27.245Z</time></trkpt><trkpt lat="44.3840652" lon="11.4051117"><ele>155.42857142857144</ele><time>2026-04-11T08:14:28.243Z</time></trkpt><trkpt lat="44.3840933" lon="11.4050177"><ele>152.85714285714286</ele><time>2026-04-11T08:14:29.245Z</time></trkpt><trkpt lat="44.38411" lon="11.4049213"><ele>150.28571428571428</ele><time>2026-04-11T08:14:30.244Z</time></trkpt><trkpt lat="44.3841272" lon="11.4048223"><ele>147.71428571428572</ele><time>2026-04-11T08:14:31.245Z</time></trkpt><trkpt lat="44.3841405" lon="11.4047117"><ele>145.14285714285714</ele><time>2026-04-11T08:14:32.245Z</time></trkpt><trkpt lat="44.3841505" lon="11.4046097"><ele>142.57142857142858</ele><time>2026-04-11T08:14:33.246Z</time></trkpt><trkpt lat="44.3841572" lon="11.4045185"><ele>140.0</ele><time>2026-04-11T08:14:34.244Z</time></trkpt><trkpt lat="44.3841682" lon="11.404397"><ele>139.28571428571428</ele><time>2026-04-11T08:14:36.245Z</time></trkpt><trkpt lat="44.384172" lon="11.4043027"><ele>138.57142857142856</ele><time>2026-04-11T08:14:39.244Z</time></trkpt><trkpt lat="44.384174" lon="11.4042117"><ele>137.85714285714286</ele><time>2026-04-11T08:15:01.245Z</time></trkpt><trkpt lat="44.384108" lon="11.404181"><ele>137.14285714285714</ele><time>2026-04-11T08:15:03.247Z</time></trkpt><trkpt lat="44.3840545" lon="11.4041193"><ele>136.42857142857142</ele><time>2026-04-11T08:15:05.244Z</time></trkpt><trkpt lat="44.3840945" lon="11.4041917"><ele>135.71428571428572</ele><time>2026-04-11T08:15:13.246Z</time></trkpt><trkpt lat="44.3841395" lon="11.4042637"><ele>135.0</ele><time>2026-04-11T08:15:22.246Z</time></trkpt><trkpt lat="44.3841962" lon="11.4043338"><ele>135.0</ele><time>2026-04-11T08:16:31.242Z</time></trkpt><trkpt lat="44.3842765" lon="11.4043033"><ele>135.0</ele><time>2026-04-11T08:17:37.242Z</time></trkpt><trkpt lat="44.3843335" lon="11.4043455"><ele>135.0</ele><time>2026-04-11T08:17:39.243Z</time></trkpt><trkpt lat="44.3844045" lon="11.4043448"><ele>135.0</ele><time>2026-04-11T08:18:33.24Z</time></trkpt><trkpt lat="44.3844772" lon="11.4043825"><ele>135.0</ele><time>2026-04-11T08:18:35.243Z</time></trkpt><trkpt lat="44.3845512" lon="11.4044113"><ele>135.0</ele><time>2026-04-11T08:18:37.244Z</time></trkpt><trkpt lat="44.3846243" lon="11.4043933"><ele>135.0</ele><time>2026-04-11T08:18:39.242Z</time></trkpt><trkpt lat="44.3847007" lon="11.4043528"><ele>134.0</ele><time>2026-04-11T08:18:42.244Z</time></trkpt><trkpt lat="44.3847557" lon="11.4043072"><ele>134.0</ele><time>2026-04-11T08:18:44.243Z</time></trkpt><trkpt lat="44.3848322" lon="11.4042427"><ele>134.0</ele><time>2026-04-11T08:18:46.244Z</time></trkpt><trkpt lat="44.3848927" lon="11.4042138"><ele>134.0</ele><time>2026-04-11T08:18:48.242Z</time></trkpt><trkpt lat="44.3849562" lon="11.4041957"><ele>134.0</ele><time>2026-04-11T08:19:29.243Z</time></trkpt></trkseg></trk></gpx>